M I D A S
Marine Information and Data Acquisition System
Tripno 584 of the Zeeleeuw from 2003-09-05 06:59:14 to 2003-09-05 13:47:11
Back to CruiseResearch ActivitiesStationsMapUnderway DataData graphs

EquipmentUnitsComment
TimeDGPSUTC
LatitudeDGPSDM.mWGS84
LongitudeDGPSDM.mWGS84
TemperatureSBE03/SBE38deg celciusITS90
ConductivitySBE21S/mITS90
SalinitySBE21 Practical Salinity Units
ChlorophylAChelsea fluorimeterg/lCalibrated in Aceton
Missing or incorrect values are displayed as -999
Sea surface data collected by the RV Zeeleeuw from 2003-09-05 06:59:14 to 2003-09-05 13:47:11
                                                                                    Next 1000 lines
Time Latitude Longitude Temperature Conductivity Salinity ChlorophylA
2003-09-05 06:59:24 51°14.36 2°55.1 -999 0.065701 0.326765 -0.578993
2003-09-05 06:59:30 51°14.37 2°55.08 -999 0.065701 0.326765 -0.545283
2003-09-05 06:59:34 51°14.38 2°55.07 -999 0.065701 0.326774 -0.545283
2003-09-05 06:59:40 51°14.38 2°55.05 -999 0.065701 0.326774 -0.545283
2003-09-05 06:59:44 51°14.39 2°55.04 -999 0.065701 0.326779 -0.545283
2003-09-05 06:59:50 51°14.4 2°55.02 -999 0.065701 0.326779 -0.545283
2003-09-05 06:59:54 51°14.4 2°55.01 -999 0.065701 0.326779 -0.545283
2003-09-05 07:00:00 51°14.41 2°54.99 -999 0.065701 0.326784 -0.578993
2003-09-05 07:00:04 51°14.42 2°54.98 -999 0.065701 0.326784 -0.545283
2003-09-05 07:00:10 51°14.43 2°54.96 -999 0.065701 0.326788 -0.545283
2003-09-05 07:00:14 51°14.43 2°54.95 -999 0.065701 0.326788 -0.545283
2003-09-05 07:00:20 51°14.44 2°54.93 -999 0.065701 0.326802 -0.545283
2003-09-05 07:00:24 51°14.44 2°54.92 -999 0.065701 0.326825 -0.545283
2003-09-05 07:00:30 51°14.45 2°54.9 -999 0.065701 0.326839 -0.545283
2003-09-05 07:00:34 51°14.45 2°54.89 -999 0.065701 0.326844 -0.545283
2003-09-05 07:00:40 51°14.45 2°54.87 -999 0.065701 0.326858 -0.545283
2003-09-05 07:00:44 51°14.45 2°54.85 -999 0.065701 0.326858 -0.545283
2003-09-05 07:00:50 51°14.46 2°54.83 24.568555 0.065701 0.326867 -0.578993
2003-09-05 07:00:54 51°14.46 2°54.82 24.054592 0.065701 0.326871 -0.545283
2003-09-05 07:01:00 51°14.46 2°54.8 24.777239 0.065701 0.326881 -0.545283
2003-09-05 07:01:04 51°14.46 2°54.78 24.583587 0.065701 0.32689 -0.545283
2003-09-05 07:01:10 51°14.46 2°54.76 24.637804 0.065701 0.326895 -0.545283
2003-09-05 07:01:14 51°14.46 2°54.75 24.637804 0.065701 0.326895 -0.545283
2003-09-05 07:01:20 51°14.46 2°54.73 24.320085 0.065701 0.326899 -0.578993
2003-09-05 07:01:24 51°14.46 2°54.72 24.10355 0.065701 0.326908 -0.578993
2003-09-05 07:01:30 51°14.46 2°54.7 24.323589 0.065701 0.326904 -0.545283
2003-09-05 07:01:34 51°14.46 2°54.69 24.297683 0.065701 0.326908 -0.545283
2003-09-05 07:01:40 51°14.45 2°54.67 24.449826 0.065701 0.326913 -0.545283
2003-09-05 07:01:44 51°14.45 2°54.66 24.449826 0.065701 0.326913 -0.545283
2003-09-05 07:01:50 51°14.45 2°54.65 24.358815 0.065701 0.326913 -0.545283
2003-09-05 07:01:54 51°14.45 2°54.64 24.511703 0.065701 0.326918 -0.545283
2003-09-05 07:02:00 51°14.45 2°54.63 24.417574 0.065701 0.326927 -0.545283
2003-09-05 07:02:04 51°14.45 2°54.62 24.326065 0.065701 0.326931 -0.545283
2003-09-05 07:02:10 51°14.45 2°54.61 24.517554 0.065701 0.326945 -0.545283
2003-09-05 07:02:14 51°14.45 2°54.6 24.517554 0.065701 0.326945 -0.545283
2003-09-05 07:02:20 51°14.45 2°54.59 24.463057 0.065701 0.326945 -0.578993
2003-09-05 07:02:24 51°14.45 2°54.58 24.495479 0.065701 0.326955 -0.545283
2003-09-05 07:02:30 51°14.45 2°54.57 24.386982 0.065701 0.326964 -0.545283
2003-09-05 07:02:34 51°14.45 2°54.57 24.276037 0.065701 0.326959 -0.578993
2003-09-05 07:02:40 51°14.45 2°54.56 24.669465 0.065701 0.326964 -0.578993
2003-09-05 07:02:44 51°14.45 2°54.55 24.669465 0.065701 0.326964 -0.578993
2003-09-05 07:02:50 51°14.45 2°54.54 24.429024 0.065701 0.326964 -0.578993
2003-09-05 07:02:54 51°14.45 2°54.54 24.404829 0.065701 0.326973 -0.545283
2003-09-05 07:03:00 51°14.45 2°54.53 24.402775 0.065701 0.326973 -0.545283
2003-09-05 07:03:04 51°14.45 2°54.52 23.126626 0.065701 0.326895 -0.545283
2003-09-05 07:03:10 51°14.45 2°54.51 23.126626 0.065701 0.326895 -0.545283
2003-09-05 07:03:14 51°14.45 2°54.51 18.848845 0.064038 0.319735 -0.578993
2003-09-05 07:03:20 51°14.45 2°54.5 18.740327 0.192941 1.010906 -0.545283
2003-09-05 07:03:24 51°14.45 2°54.49 18.677716 0.357631 1.936076 1.005349
2003-09-05 07:03:30 51°14.45 2°54.49 18.652557 0.386924 2.099061 0.465999
2003-09-05 07:03:36 51°14.46 2°54.48 18.672891 0.384005 2.097855 2.151469
2003-09-05 07:03:40 51°14.46 2°54.47 18.630897 1.897092 12.08772 2.353725
2003-09-05 07:03:44 51°14.46 2°54.47 18.630897 1.897092 12.08772 2.353725
2003-09-05 07:03:50 51°14.46 2°54.46 18.625697 3.108128 21.301723 2.387435
2003-09-05 07:03:54 51°14.46 2°54.46 18.622561 2.912356 19.883355 2.286306
2003-09-05 07:04:00 51°14.46 2°54.45 18.620869 3.10582 21.657464 2.320016
2003-09-05 07:04:04 51°14.46 2°54.45 18.617856 3.345165 23.656282 2.252597
2003-09-05 07:04:10 51°14.46 2°54.44 18.615999 4.014109 29.095455 2.252597
2003-09-05 07:04:14 51°14.47 2°54.44 18.615999 4.014109 29.095455 2.252597
2003-09-05 07:04:20 51°14.47 2°54.43 18.612903 4.214987 30.798761 2.252597
2003-09-05 07:04:24 51°14.47 2°54.43 18.609807 4.287337 31.45424 2.252597
2003-09-05 07:04:30 51°14.47 2°54.42 18.610179 4.314339 31.704261 2.286306
2003-09-05 07:04:34 51°14.47 2°54.42 18.743499 4.324993 31.819509 2.252597
2003-09-05 07:04:40 51°14.47 2°54.41 18.606505 4.33322 31.913401 2.218888
2003-09-05 07:04:44 51°14.47 2°54.41 18.606505 4.33322 31.913401 2.218888
2003-09-05 07:04:50 51°14.47 2°54.4 18.638654 4.352523 32.090437 2.286306
2003-09-05 07:04:54 51°14.47 2°54.4 18.6044 4.352207 32.099415 2.252597
2003-09-05 07:05:00 51°14.47 2°54.39 18.637004 4.354422 32.128715 2.218888
2003-09-05 07:05:04 51°14.47 2°54.39 18.603203 4.358431 32.171168 2.151469
2003-09-05 07:05:10 51°14.47 2°54.38 18.603904 4.358431 32.182796 2.151469
2003-09-05 07:05:14 51°14.47 2°54.38 18.603904 4.358431 32.182796 2.151469
2003-09-05 07:05:20 51°14.47 2°54.37 18.639025 4.289555 31.616908 2.117759
2003-09-05 07:05:24 51°14.47 2°54.37 18.604771 4.362228 32.224113 2.185178
2003-09-05 07:05:30 51°14.47 2°54.36 18.6044 4.360963 32.216994 2.117759
2003-09-05 07:05:34 51°14.47 2°54.36 18.602831 4.361174 32.22595 2.151469
2003-09-05 07:05:40 51°14.47 2°54.36 18.603409 4.361068 32.229521 2.08405
2003-09-05 07:05:44 51°14.47 2°54.35 18.603409 4.361068 32.229521 2.08405
2003-09-05 07:05:50 51°14.47 2°54.35 18.637746 4.36149 32.234671 2.117759
2003-09-05 07:05:56 51°14.47 2°54.34 18.604689 4.361068 32.234519 2.117759
2003-09-05 07:06:00 51°14.47 2°54.34 18.604813 4.361279 32.238484 2.050341
2003-09-05 07:06:04 51°14.47 2°54.33 18.604689 4.361174 32.238724 2.08405
2003-09-05 07:06:10 51°14.47 2°54.33 18.604441 4.343559 32.095481 2.016631
2003-09-05 07:06:14 51°14.47 2°54.33 18.604441 4.343559 32.095481 2.016631
2003-09-05 07:06:20 51°14.47 2°54.32 18.607083 4.361174 32.242058 2.016631
2003-09-05 07:06:24 51°14.47 2°54.32 18.608239 4.360963 32.243094 2.016631
2003-09-05 07:06:30 51°14.47 2°54.31 18.64179 4.360858 32.246114 1.982922
2003-09-05 07:06:34 51°14.47 2°54.31 18.610468 4.360858 32.245558 2.050341
2003-09-05 07:06:40 51°14.46 2°54.29 18.612986 4.360647 32.245483 1.915503
2003-09-05 07:06:44 51°14.46 2°54.28 18.612986 4.360647 32.245483 1.915503
2003-09-05 07:06:50 51°14.46 2°54.27 18.614471 4.36033 32.244536 1.881794
2003-09-05 07:06:54 51°14.46 2°54.26 18.650371 4.361069 32.252862 1.915503
2003-09-05 07:07:00 51°14.45 2°54.24 18.652805 4.360014 32.244145 1.881794
2003-09-05 07:07:04 51°14.45 2°54.23 18.621116 4.359908 32.244385 1.915503
2003-09-05 07:07:10 51°14.45 2°54.2 18.625037 4.360225 32.248113 1.881794
2003-09-05 07:07:14 51°14.44 2°54.19 18.625037 4.360225 32.248113 1.881794
2003-09-05 07:07:20 51°14.44 2°54.16 18.627348 4.360436 32.247632 1.848084
2003-09-05 07:07:24 51°14.43 2°54.15 18.628999 4.360647 32.247151 1.915503
2003-09-05 07:07:30 51°14.43 2°54.12 18.631186 4.359908 32.241049 1.915503
2003-09-05 07:07:36 51°14.42 2°54.09 18.632465 4.359697 32.239306 1.949212
2003-09-05 07:07:40 51°14.41 2°54.08 18.63362 4.359065 32.233521 1.915503
2003-09-05 07:07:44 51°14.41 2°54.06 18.63362 4.359065 32.233521 1.915503
2003-09-05 07:07:50 51°14.4 2°54.03 18.666953 4.359803 32.239066 1.982922
2003-09-05 07:07:54 51°14.39 2°54.01 18.635106 4.359486 32.23534 2.016631
2003-09-05 07:08:00 51°14.38 2°53.98 18.636756 4.360647 32.242147 1.982922
2003-09-05 07:08:04 51°14.38 2°53.96 18.704556 4.360119 32.236678 2.016631
2003-09-05 07:08:10 51°14.37 2°53.93 18.670912 4.36033 32.23731 2.016631
2003-09-05 07:08:14 51°14.36 2°53.91 18.670912 4.36033 32.23731 2.016631
2003-09-05 07:08:20 51°14.35 2°53.88 18.636839 4.360541 32.237385 2.016631
2003-09-05 07:08:24 51°14.35 2°53.86 18.670252 4.361069 32.241742 1.949212
2003-09-05 07:08:30 51°14.34 2°53.83 18.635106 4.359486 32.227561 2.050341
2003-09-05 07:08:34 51°14.33 2°53.81 18.634941 4.359486 32.229227 2.016631
2003-09-05 07:08:40 51°14.32 2°53.79 18.635312 4.360963 32.23976 1.949212
2003-09-05 07:08:44 51°14.32 2°53.77 18.635312 4.360963 32.23976 1.949212
2003-09-05 07:08:50 51°14.3 2°53.74 18.633991 4.360225 32.232549 1.881794
2003-09-05 07:08:54 51°14.3 2°53.72 18.631887 4.358853 32.222333 1.881794
2003-09-05 07:09:00 51°14.29 2°53.69 18.630443 4.35917 32.224947 1.848084
2003-09-05 07:09:04 51°14.28 2°53.67 18.664767 4.359275 32.226374 1.814375
2003-09-05 07:09:10 51°14.27 2°53.64 18.631639 4.359381 32.227801 1.881794
2003-09-05 07:09:14 51°14.26 2°53.62 18.631639 4.359381 32.227801 1.881794
2003-09-05 07:09:20 51°14.25 2°53.59 18.631062 4.360014 32.233029 1.915503
2003-09-05 07:09:24 51°14.25 2°53.57 18.630525 4.358221 32.219327 1.780665
2003-09-05 07:09:30 51°14.24 2°53.55 18.631021 4.357799 32.218063 1.780665
2003-09-05 07:09:34 51°14.23 2°53.53 18.630649 4.358115 32.221233 1.746956
2003-09-05 07:09:40 51°14.22 2°53.5 18.629824 4.358854 32.228999 1.780665
2003-09-05 07:09:44 51°14.21 2°53.48 18.629824 4.358854 32.228999 1.780665
2003-09-05 07:09:50 51°14.2 2°53.45 18.629824 4.358115 32.22401 1.780665
2003-09-05 07:09:54 51°14.2 2°53.43 18.662787 4.356638 32.21181 1.746956
2003-09-05 07:10:00 51°14.19 2°53.4 18.628916 4.356744 32.213792 1.713247
2003-09-05 07:10:04 51°14.18 2°53.38 18.628916 4.356006 32.208247 1.780665
2003-09-05 07:10:10 51°14.17 2°53.35 18.628916 4.356006 32.208247 1.780665
2003-09-05 07:10:14 51°14.16 2°53.33 18.63036 4.3559 32.206821 1.713247
2003-09-05 07:10:20 51°14.15 2°53.31 18.631722 4.35706 32.216962 1.713247
2003-09-05 07:10:24 51°14.14 2°53.29 18.631928 4.355162 32.202386 1.746956
2003-09-05 07:10:30 51°14.13 2°53.26 18.632011 4.35474 32.198345 1.746956
2003-09-05 07:10:34 51°14.13 2°53.24 18.633538 4.354845 32.200327 1.679537
2003-09-05 07:10:40 51°14.12 2°53.21 18.633538 4.354845 32.200327 1.679537
2003-09-05 07:10:44 51°14.11 2°53.19 18.633166 4.355795 32.210948 1.713247
2003-09-05 07:10:50 51°14.1 2°53.16 18.632465 4.354318 32.198746 1.679537
2003-09-05 07:10:54 51°14.09 2°53.14 18.630979 4.355478 32.207222 1.679537
2003-09-05 07:11:00 51°14.08 2°53.11 18.627802 4.3559 32.212375 1.645828
2003-09-05 07:11:04 51°14.08 2°53.09 18.62578 4.3559 32.211819 1.645828
2003-09-05 07:11:10 51°14.07 2°53.06 18.623221 4.356217 32.213878 1.645828
2003-09-05 07:11:14 51°14.06 2°53.04 18.623221 4.356217 32.213878 1.645828
2003-09-05 07:11:20 51°14.05 2°53.01 18.621612 4.3559 32.211819 1.679537
2003-09-05 07:11:24 51°14.04 2°52.99 18.619961 4.355584 32.209204 1.679537
2003-09-05 07:11:30 51°14.03 2°52.96 18.618764 4.355056 32.204291 1.645828
2003-09-05 07:11:34 51°14.03 2°52.94 18.650783 4.355478 32.207777 1.612118
2003-09-05 07:11:40 51°14.02 2°52.92 18.616948 4.353474 32.19344 1.645828
2003-09-05 07:11:44 51°14.01 2°52.9 18.616948 4.353474 32.19344 1.645828
2003-09-05 07:11:50 51°14 2°52.87 18.616865 4.354002 32.199463 1.612118
2003-09-05 07:11:54 51°13.99 2°52.85 18.649711 4.353369 32.196455 1.5447
2003-09-05 07:12:00 51°13.98 2°52.82 18.615668 4.283017 31.618061 1.5447
2003-09-05 07:12:04 51°13.98 2°52.8 18.615462 4.355373 32.215795 1.5447
2003-09-05 07:12:10 51°13.97 2°52.77 18.614843 4.354635 32.210248 1.477281
2003-09-05 07:12:16 51°13.96 2°52.74 18.614843 4.354635 32.210248 1.477281
2003-09-05 07:12:20 51°13.95 2°52.72 18.649876 4.354213 32.209539 1.51099
2003-09-05 07:12:24 51°13.94 2°52.7 18.616948 4.354213 32.210095 1.477281
2003-09-05 07:12:30 51°13.93 2°52.67 18.617567 4.354951 32.21731 1.51099
2003-09-05 07:12:34 51°13.92 2°52.65 18.61831 4.354529 32.214934 1.477281
2003-09-05 07:12:40 51°13.91 2°52.62 18.618145 4.354951 32.219533 1.443571
2003-09-05 07:12:44 51°13.91 2°52.61 18.618145 4.354951 32.219533 1.443571
2003-09-05 07:12:50 51°13.9 2°52.58 18.619383 4.354846 32.219217 1.443571
2003-09-05 07:12:54 51°13.89 2°52.56 18.619589 4.354424 32.216841 1.376153
2003-09-05 07:13:00 51°13.88 2°52.53 18.620208 4.35474 32.217789 1.409862
2003-09-05 07:13:04 51°13.87 2°52.51 18.620951 4.353474 32.208438 1.409862
2003-09-05 07:13:10 51°13.86 2°52.48 18.621488 4.355373 32.223577 1.376153
2003-09-05 07:13:14 51°13.86 2°52.46 18.621488 4.355373 32.223577 1.376153
2003-09-05 07:13:20 51°13.85 2°52.43 18.622313 4.35569 32.226749 1.342443
2003-09-05 07:13:24 51°13.84 2°52.41 18.62252 4.353791 32.211054 1.376153
2003-09-05 07:13:30 51°13.83 2°52.38 18.623056 4.354213 32.21343 1.409862
2003-09-05 07:13:34 51°13.82 2°52.36 18.657219 4.354846 32.218661 1.308734
2003-09-05 07:13:40 51°13.81 2°52.33 18.657755 4.355795 32.225953 1.376153
2003-09-05 07:13:44 51°13.81 2°52.31 18.657755 4.355795 32.225953 1.376153
2003-09-05 07:13:50 51°13.79 2°52.28 18.623964 4.356428 32.231185 1.443571
2003-09-05 07:13:54 51°13.79 2°52.26 18.6245 4.35685 32.234117 1.342443
2003-09-05 07:14:00 51°13.78 2°52.23 18.624665 4.357166 32.236177 1.409862
2003-09-05 07:14:04 51°13.77 2°52.21 18.624996 4.357272 32.238161 1.275024
2003-09-05 07:14:10 51°13.76 2°52.18 18.625078 4.357166 32.236177 1.308734
2003-09-05 07:14:14 51°13.75 2°52.16 18.625078 4.357166 32.236177 1.308734
2003-09-05 07:14:20 51°13.74 2°52.13 18.659941 4.357799 32.241965 1.342443
2003-09-05 07:14:24 51°13.74 2°52.12 18.627265 4.356744 32.232133 1.275024
2003-09-05 07:14:30 51°13.73 2°52.09 18.62743 4.357166 32.236177 1.241315
2003-09-05 07:14:34 51°13.72 2°52.07 18.628421 4.358959 32.251001 1.376153
2003-09-05 07:14:40 51°13.71 2°52.04 18.662292 4.359698 32.257662 1.275024
2003-09-05 07:14:44 51°13.7 2°52.02 18.662292 4.359698 32.257662 1.275024
2003-09-05 07:14:50 51°13.69 2°51.99 18.628627 4.360225 32.260353 1.275024
2003-09-05 07:14:54 51°13.68 2°51.97 18.630195 4.360753 32.264713 1.241315
2003-09-05 07:15:00 51°13.67 2°51.94 18.631021 4.360647 32.264398 1.275024
2003-09-05 07:15:04 51°13.67 2°51.92 18.631639 4.358643 32.247272 1.241315
2003-09-05 07:15:10 51°13.66 2°51.89 18.632712 4.359909 32.25718 1.308734
2003-09-05 07:15:14 51°13.65 2°51.87 18.632712 4.359909 32.25718 1.308734
2003-09-05 07:15:20 51°13.64 2°51.85 18.632836 4.362124 32.274937 1.275024
2003-09-05 07:15:24 51°13.63 2°51.83 18.667076 4.359592 32.253451 1.275024
2003-09-05 07:15:30 51°13.62 2°51.8 18.634115 4.360542 32.261856 1.275024
2003-09-05 07:15:36 51°13.61 2°51.77 18.633373 4.36455 32.294439 1.241315
2003-09-05 07:15:40 51°13.61 2°51.75 18.633455 4.364022 32.289521 1.275024
2003-09-05 07:15:44 51°13.6 2°51.73 18.633455 4.364022 32.289521 1.275024
2003-09-05 07:15:50 51°13.59 2°51.7 18.634198 4.364972 32.297371 1.207606
2003-09-05 07:15:54 51°13.58 2°51.68 18.633538 4.365605 32.302046 1.241315
2003-09-05 07:16:00 51°13.57 2°51.65 18.634652 4.364972 32.295699 1.275024
2003-09-05 07:16:04 51°13.57 2°51.63 18.635312 4.365816 32.303233 1.241315
2003-09-05 07:16:10 51°13.56 2°51.6 18.635023 4.366027 32.303306 1.275024
2003-09-05 07:16:14 51°13.55 2°51.58 18.635023 4.366027 32.303306 1.275024
2003-09-05 07:16:20 51°13.54 2°51.55 18.634569 4.365394 32.298073 1.241315
2003-09-05 07:16:24 51°13.53 2°51.53 18.633909 4.366448 32.307352 1.275024
2003-09-05 07:16:30 51°13.52 2°51.5 18.634445 4.367081 32.312585 1.275024
2003-09-05 07:16:34 51°13.52 2°51.49 18.634198 4.370879 32.343428 1.241315
2003-09-05 07:16:40 51°13.51 2°51.46 18.66786 4.36898 32.3294 1.241315
2003-09-05 07:16:44 51°13.5 2°51.44 18.66786 4.36898 32.3294 1.241315
2003-09-05 07:16:50 51°13.49 2°51.41 18.634569 4.371195 32.346603 1.275024
2003-09-05 07:16:54 51°13.48 2°51.39 18.63428 4.372566 32.356827 1.241315
2003-09-05 07:17:00 51°13.47 2°51.36 18.633909 4.370351 32.340182 1.207606
2003-09-05 07:17:04 51°13.47 2°51.34 18.634899 4.374043 32.370715 1.207606
2003-09-05 07:17:10 51°13.46 2°51.31 18.635188 4.372672 32.359374 1.173896
2003-09-05 07:17:14 51°13.45 2°51.29 18.635188 4.372672 32.359374 1.173896
2003-09-05 07:17:20 51°13.44 2°51.27 18.635106 4.372039 32.353581 1.173896
2003-09-05 07:17:24 51°13.43 2°51.25 18.635023 4.375625 32.383244 1.173896
2003-09-05 07:17:30 51°13.42 2°51.22 18.635188 4.376997 32.395704 1.140187
2003-09-05 07:17:34 51°13.41 2°51.2 18.635106 4.374993 32.378567 1.173896
2003-09-05 07:17:40 51°13.4 2°51.17 18.635106 4.374993 32.378567 1.173896
2003-09-05 07:17:44 51°13.4 2°51.15 18.634941 4.378684 32.410784 1.140187
2003-09-05 07:17:50 51°13.39 2°51.12 18.635188 4.347251 32.150342 1.173896
2003-09-05 07:17:54 51°13.38 2°51.1 18.636096 4.378263 32.406175 1.173896
2003-09-05 07:18:00 51°13.37 2°51.07 18.637127 4.376469 32.390782 1.173896
2003-09-05 07:18:04 51°13.36 2°51.05 18.638118 4.380161 32.421323 1.140187
2003-09-05 07:18:10 51°13.35 2°51.03 18.672438 4.381111 32.429177 1.173896
2003-09-05 07:18:14 51°13.35 2°51.01 18.672438 4.381111 32.429177 1.173896
2003-09-05 07:18:20 51°13.34 2°50.98 18.672974 4.377946 32.404675 1.140187
2003-09-05 07:18:24 51°13.33 2°50.96 18.640016 4.380794 32.427678 1.106477
2003-09-05 07:18:30 51°13.32 2°50.93 18.641047 4.380583 32.425932 1.140187
2003-09-05 07:18:34 51°13.31 2°50.91 18.641748 4.380267 32.422195 1.173896
2003-09-05 07:18:40 51°13.3 2°50.88 18.641872 4.381532 32.432667 1.140187
2003-09-05 07:18:44 51°13.3 2°50.86 18.641872 4.381532 32.432667 1.140187
2003-09-05 07:18:50 51°13.28 2°50.83 18.643151 4.383642 32.449562 1.140187
2003-09-05 07:18:54 51°13.28 2°50.81 18.710409 4.385013 32.461468 1.140187
2003-09-05 07:19:00 51°13.27 2°50.78 18.643234 4.385541 32.464712 1.173896
2003-09-05 07:19:04 51°13.26 2°50.76 18.643688 4.386174 32.468268 1.140187
2003-09-05 07:19:10 51°13.25 2°50.73 18.642697 4.386912 32.474938 1.106477
2003-09-05 07:19:14 51°13.25 2°50.71 18.642697 4.386912 32.474938 1.106477
2003-09-05 07:19:20 51°13.24 2°50.68 18.642037 4.387334 32.476749 1.106477
2003-09-05 07:19:24 51°13.23 2°50.66 18.641748 4.387123 32.475563 1.106477
2003-09-05 07:19:30 51°13.22 2°50.63 18.641212 4.38765 32.479927 1.072768
2003-09-05 07:19:34 51°13.21 2°50.61 18.640304 4.388916 32.48928 1.106477
2003-09-05 07:19:40 51°13.2 2°50.59 18.639933 4.389233 32.492459 1.072768
2003-09-05 07:19:44 51°13.2 2°50.57 18.639933 4.389233 32.492459 1.072768
2003-09-05 07:19:50 51°13.19 2°50.54 18.672685 4.389233 32.491899 1.072768
2003-09-05 07:19:54 51°13.18 2°50.52 18.638943 4.38976 32.496263 1.072768
2003-09-05 07:20:00 51°13.17 2°50.49 18.638943 4.390182 32.499755 1.072768
2003-09-05 07:20:04 51°13.16 2°50.47 18.639479 4.389971 32.499691 1.072768
2003-09-05 07:20:10 51°13.15 2°50.44 18.640222 4.390604 32.503807 1.140187
2003-09-05 07:20:16 51°13.14 2°50.41 18.640222 4.390604 32.503807 1.140187
2003-09-05 07:20:20 51°13.13 2°50.39 18.640882 4.391026 32.507859 1.072768
2003-09-05 07:20:24 51°13.13 2°50.37 18.642697 4.390815 32.507796 1.039059
2003-09-05 07:20:30 51°13.12 2°50.34 18.642574 4.391026 32.510103 1.072768
2003-09-05 07:20:34 51°13.11 2°50.32 18.644224 4.391764 32.516214 1.039059
2003-09-05 07:20:40 51°13.1 2°50.29 18.645132 4.391659 32.51478 1.072768
2003-09-05 07:20:44 51°13.09 2°50.27 18.645132 4.391659 32.51478 1.072768
2003-09-05 07:20:50 51°13.08 2°50.24 18.64608 4.391764 32.516214 1.072768
2003-09-05 07:20:54 51°13.07 2°50.22 18.647153 4.391764 32.516775 1.039059
2003-09-05 07:21:00 51°13.06 2°50.2 18.649257 4.392608 32.522076 1.072768
2003-09-05 07:21:04 51°13.06 2°50.18 18.651155 4.392608 32.522637 1.072768
2003-09-05 07:21:10 51°13.05 2°50.15 18.652268 4.39303 32.525007 1.039059
2003-09-05 07:21:14 51°13.04 2°50.13 18.652268 4.39303 32.525007 1.039059
2003-09-05 07:21:20 51°13.03 2°50.1 18.687654 4.393452 32.527937 1.005349
2003-09-05 07:21:24 51°13.02 2°50.08 18.655569 4.393874 32.530868 1.039059
2003-09-05 07:21:30 51°13.01 2°50.05 18.656394 4.392819 32.522138 1.072768
2003-09-05 07:21:34 51°13.01 2°50.03 18.658085 4.394823 32.537042 1.072768
2003-09-05 07:21:40 51°13 2°50 18.659033 4.3963 32.548141 1.039059
2003-09-05 07:21:44 51°12.99 2°49.98 18.659033 4.3963 32.548141 1.039059
2003-09-05 07:21:50 51°12.98 2°49.95 18.659858 4.396511 32.548764 1.072768
2003-09-05 07:21:54 51°12.97 2°49.93 18.661426 4.397039 32.552567 1.039059
2003-09-05 07:22:00 51°12.96 2°49.9 18.662869 4.397882 32.55899 1.072768
2003-09-05 07:22:04 51°12.96 2°49.88 18.663406 4.398304 32.561359 1.039059
2003-09-05 07:22:10 51°12.95 2°49.85 18.66423 4.399254 32.566969 1.072768
2003-09-05 07:22:14 51°12.94 2°49.83 18.66423 4.399254 32.566969 1.072768
2003-09-05 07:22:20 51°12.93 2°49.8 18.69895 4.399465 32.568153 1.039059
2003-09-05 07:22:24 51°12.92 2°49.78 18.66522 4.400625 32.576632 1.039059
2003-09-05 07:22:30 51°12.91 2°49.75 18.666293 4.401258 32.58187 1.039059
2003-09-05 07:22:34 51°12.91 2°49.74 18.667448 4.401574 32.582241 1.106477
2003-09-05 07:22:40 51°12.9 2°49.71 18.669221 4.402207 32.588041 1.072768
2003-09-05 07:22:44 51°12.89 2°49.69 18.669221 4.402207 32.588041 1.072768
2003-09-05 07:22:50 51°12.88 2°49.66 18.703773 4.403157 32.594212 1.039059
2003-09-05 07:22:54 51°12.87 2°49.64 18.671737 4.40495 32.607366 1.072768
2003-09-05 07:23:00 51°12.86 2°49.61 18.673345 4.405055 32.608801 1.072768
2003-09-05 07:23:04 51°12.86 2°49.59 18.673964 4.405794 32.61435 1.039059
2003-09-05 07:23:10 51°12.85 2°49.56 18.67619 4.406216 32.617279 1.005349
2003-09-05 07:23:14 51°12.84 2°49.54 18.67619 4.406216 32.617279 1.005349
2003-09-05 07:23:20 51°12.83 2°49.51 18.677263 4.407482 32.62663 1.005349
2003-09-05 07:23:24 51°12.82 2°49.49 18.71416 4.408009 32.630433 1.005349
2003-09-05 07:23:30 51°12.81 2°49.46 18.684479 4.408325 32.633052 1.005349
2003-09-05 07:23:34 51°12.81 2°49.45 18.687118 4.40938 32.640094 1.005349
2003-09-05 07:23:40 51°12.8 2°49.42 18.723721 4.409697 32.639899 1.005349
2003-09-05 07:23:44 51°12.79 2°49.4 18.723721 4.409697 32.639899 1.005349
2003-09-05 07:23:50 51°12.78 2°49.37 18.693261 4.410119 32.644517 1.005349
2003-09-05 07:23:54 51°12.77 2°49.35 18.695116 4.410963 32.650938 1.005349
2003-09-05 07:24:00 51°12.76 2°49.32 18.698496 4.412017 32.657416 1.039059
2003-09-05 07:24:04 51°12.75 2°49.3 18.701629 4.412228 32.658599 1.039059
2003-09-05 07:24:10 51°12.74 2°49.27 18.703691 4.413389 32.666513 1.005349
2003-09-05 07:24:14 51°12.74 2°49.25 18.703691 4.413389 32.666513 1.005349
2003-09-05 07:24:20 51°12.73 2°49.22 18.706329 4.414549 32.674426 1.039059
2003-09-05 07:24:24 51°12.72 2°49.21 18.71078 4.415076 32.675975 0.97164
2003-09-05 07:24:30 51°12.71 2°49.18 18.715314 4.417186 32.69118 1.039059
2003-09-05 07:24:34 51°12.7 2°49.16 18.751862 4.417503 32.692672 0.93793
2003-09-05 07:24:40 51°12.69 2°49.13 18.72096 4.418768 32.70033 1.005349
2003-09-05 07:24:44 51°12.69 2°49.11 18.72096 4.418768 32.70033 1.005349
2003-09-05 07:24:50 51°12.68 2°49.08 18.723969 4.419612 32.706186 1.005349
2003-09-05 07:24:54 51°12.67 2°49.06 18.726894 4.420773 32.713533 1.039059
2003-09-05 07:24:59 51°12.66 2°49.04 18.729243 4.421827 32.720007 1.005349
2003-09-05 07:25:04 51°12.65 2°49.01 18.730438 4.421827 32.718879 1.005349
2003-09-05 07:25:10 51°12.64 2°48.98 18.730438 4.421827 32.718879 1.005349
2003-09-05 07:25:14 51°12.63 2°48.96 18.73188 4.424359 32.73588 0.97164
2003-09-05 07:25:20 51°12.62 2°48.93 18.73324 4.424359 32.733061 0.97164
2003-09-05 07:25:24 51°12.62 2°48.92 18.734435 4.425625 32.741278 1.005349
2003-09-05 07:25:30 51°12.61 2°48.89 18.735795 4.42668 32.748313 0.97164
2003-09-05 07:25:34 51°12.6 2°48.87 18.770314 4.428789 32.762946 0.97164
2003-09-05 07:25:40 51°12.59 2°48.84 18.73769 4.429844 32.76998 1.005349
2003-09-05 07:25:44 51°12.58 2°48.82 18.73769 4.429844 32.76998 1.005349
2003-09-05 07:25:50 51°12.57 2°48.79 18.738967 4.429 32.760742 0.93793
2003-09-05 07:25:54 51°12.56 2°48.77 18.738802 4.431743 32.780608 1.005349
2003-09-05 07:26:00 51°12.55 2°48.74 18.738143 4.43227 32.784407 0.97164
2003-09-05 07:26:04 51°12.55 2°48.72 18.738967 4.43322 32.791131 1.039059
2003-09-05 07:26:10 51°12.54 2°48.69 18.738967 4.434486 32.801038 1.005349
2003-09-05 07:26:14 51°12.53 2°48.67 18.738967 4.434486 32.801038 1.005349
2003-09-05 07:26:20 51°12.52 2°48.64 18.738802 4.435541 32.809199 1.005349
2003-09-05 07:26:24 51°12.51 2°48.62 18.739338 4.435857 32.810687 0.904221
2003-09-05 07:26:30 51°12.5 2°48.59 18.740162 4.436912 32.817719 1.005349
2003-09-05 07:26:34 51°12.5 2°48.57 18.742593 4.438178 32.827625 0.93793
2003-09-05 07:26:40 51°12.49 2°48.55 18.74354 4.439338 32.836659 0.93793
2003-09-05 07:26:44 51°12.48 2°48.53 18.74354 4.439338 32.836659 0.93793
2003-09-05 07:26:50 51°12.47 2°48.5 18.745229 4.440077 32.842768 0.97164
2003-09-05 07:26:54 51°12.46 2°48.48 18.746424 4.440288 32.844513 0.904221
2003-09-05 07:27:00 51°12.45 2°48.45 18.747866 4.440921 32.849749 0.93793
2003-09-05 07:27:04 51°12.44 2°48.43 18.750997 4.441448 32.853547 0.93793
2003-09-05 07:27:10 51°12.43 2°48.4 18.753139 4.441448 32.854113 0.904221
2003-09-05 07:27:14 51°12.43 2°48.38 18.753139 4.441448 32.854113 0.904221
2003-09-05 07:27:20 51°12.42 2°48.35 18.755404 4.442608 32.862582 0.93793
2003-09-05 07:27:24 51°12.41 2°48.33 18.758535 4.443874 32.871923 0.93793
2003-09-05 07:27:30 51°12.4 2°48.3 18.79506 4.444718 32.877774 0.93793
2003-09-05 07:27:34 51°12.4 2°48.28 18.797777 4.445879 32.88511 0.93793
2003-09-05 07:27:40 51°12.39 2°48.26 18.766607 4.445984 32.885983 0.93793
2003-09-05 07:27:44 51°12.38 2°48.24 18.766607 4.445984 32.885983 0.93793
2003-09-05 07:27:50 51°12.37 2°48.21 18.768172 4.447672 32.897682 1.005349
2003-09-05 07:27:54 51°12.36 2°48.19 18.770726 4.448516 32.902966 0.904221
2003-09-05 07:28:00 51°12.35 2°48.16 18.773032 4.450415 32.917542 0.93793
2003-09-05 07:28:04 51°12.35 2°48.14 18.774802 4.451892 32.926928 0.904221
2003-09-05 07:28:10 51°12.34 2°48.11 18.776861 4.452103 32.926974 0.93793
2003-09-05 07:28:14 51°12.33 2°48.09 18.776861 4.452103 32.926974 0.93793
2003-09-05 07:28:20 51°12.32 2°48.06 18.778509 4.451786 32.922657 0.97164
2003-09-05 07:28:24 51°12.31 2°48.04 18.848187 4.455056 32.947443 0.93793
2003-09-05 07:28:30 51°12.3 2°48.01 18.782956 4.456322 32.955648 0.97164
2003-09-05 07:28:34 51°12.3 2°47.99 18.852341 4.457588 32.964419 0.904221
2003-09-05 07:28:40 51°12.29 2°47.96 18.852341 4.457588 32.964419 0.904221
2003-09-05 07:28:44 51°12.28 2°47.94 18.786044 4.458537 32.971706 0.870512
2003-09-05 07:28:50 51°12.27 2°47.91 18.78732 4.459276 32.974979 0.904221
2003-09-05 07:28:54 51°12.26 2°47.89 18.821649 4.460331 32.982571 0.93793
2003-09-05 07:29:00 51°12.25 2°47.86 18.78909 4.461597 32.992475 0.97164
2003-09-05 07:29:04 51°12.25 2°47.84 18.789708 4.46223 32.994874 1.005349
2003-09-05 07:29:10 51°12.23 2°47.81 18.789708 4.46223 32.994874 1.005349
2003-09-05 07:29:14 51°12.23 2°47.79 18.8242 4.462652 32.996663 0.870512
2003-09-05 07:29:20 51°12.22 2°47.76 18.790696 4.464339 33.010056 0.870512
2003-09-05 07:29:24 51°12.21 2°47.74 18.790943 4.465816 33.018867 0.870512
2003-09-05 07:29:30 51°12.2 2°47.72 18.790696 4.466133 33.021485 0.870512
2003-09-05 07:29:34 51°12.19 2°47.7 18.79049 4.466449 33.02467 0.870512
2003-09-05 07:29:40 51°12.18 2°47.67 18.790902 4.466766 33.025585 0.870512
2003-09-05 07:29:44 51°12.17 2°47.65 18.790902 4.466766 33.025585 0.870512
2003-09-05 07:29:50 51°12.16 2°47.62 18.790037 4.46761 33.03143 0.836802
2003-09-05 07:29:54 51°12.16 2°47.6 18.791066 4.468454 33.036707 0.904221
2003-09-05 07:30:00 51°12.15 2°47.57 18.79119 4.468665 33.038452 0.93793
2003-09-05 07:30:04 51°12.14 2°47.55 18.792631 4.469614 33.045169 0.904221
2003-09-05 07:30:10 51°12.13 2°47.52 18.793495 4.469825 33.048618 0.870512
2003-09-05 07:30:14 51°12.12 2°47.5 18.793495 4.469825 33.048618 0.870512
2003-09-05 07:30:20 51°12.11 2°47.47 18.793578 4.471091 33.057385 0.870512
2003-09-05 07:30:24 51°12.11 2°47.45 18.794854 4.471724 33.063189 0.904221
2003-09-05 07:30:30 51°12.1 2°47.42 18.794772 4.472884 33.070514 0.93793
2003-09-05 07:30:34 51°12.09 2°47.4 18.794689 4.474045 33.08125 0.97164
2003-09-05 07:30:40 51°12.08 2°47.38 18.794401 4.47299 33.072524 0.93793
2003-09-05 07:30:44 51°12.07 2°47.36 18.794401 4.47299 33.072524 0.93793
2003-09-05 07:30:50 51°12.06 2°47.33 18.79366 4.474889 33.086526 0.904221
2003-09-05 07:30:54 51°12.06 2°47.31 18.792219 4.474783 33.086222 0.93793
2003-09-05 07:31:00 51°12.05 2°47.28 18.789872 4.475838 33.09438 0.904221
2003-09-05 07:31:04 51°12.04 2°47.26 18.78839 4.476577 33.098782 0.870512
2003-09-05 07:31:10 51°12.03 2°47.23 18.786167 4.476788 33.100528 0.870512
2003-09-05 07:31:14 51°12.02 2°47.21 18.786167 4.476788 33.100528 0.870512
2003-09-05 07:31:20 51°12.01 2°47.18 18.783614 4.477421 33.105195 0.904221
2003-09-05 07:31:24 51°12.01 2°47.16 18.782873 4.476999 33.102842 0.870512
2003-09-05 07:31:30 51°12 2°47.13 18.782256 4.478054 33.111 0.97164
2003-09-05 07:31:34 51°11.99 2°47.11 18.782256 4.478476 33.11506 0.904221
2003-09-05 07:31:40 51°11.98 2°47.09 18.781309 4.47837 33.116464 0.904221
2003-09-05 07:31:44 51°11.97 2°47.07 18.781309 4.47837 33.116464 0.904221
2003-09-05 07:31:50 51°11.96 2°47.04 18.780609 4.478476 33.117906 0.870512
2003-09-05 07:31:54 51°11.96 2°47.02 18.780403 4.478581 33.121056 0.836802
2003-09-05 07:32:00 51°11.95 2°46.99 18.779991 4.479425 33.128039 0.904221
2003-09-05 07:32:04 51°11.94 2°46.97 18.779867 4.479425 33.130317 0.97164
2003-09-05 07:32:10 51°11.93 2°46.94 18.781226 4.479847 33.134379 0.836802
2003-09-05 07:32:14 51°11.92 2°46.92 18.781226 4.479847 33.134379 0.836802
2003-09-05 07:32:20 51°11.91 2°46.89 18.781679 4.479531 33.132329 0.93793
2003-09-05 07:32:24 51°11.91 2°46.87 18.780897 4.479742 33.134645 0.93793
2003-09-05 07:32:30 51°11.9 2°46.84 18.783079 4.480164 33.139276 0.870512
2003-09-05 07:32:34 51°11.89 2°46.82 18.782626 4.48048 33.141326 0.904221
2003-09-05 07:32:40 51°11.88 2°46.79 18.781309 4.480586 33.143339 0.93793
2003-09-05 07:32:44 51°11.87 2°46.77 18.781309 4.480586 33.143339 0.93793
2003-09-05 07:32:50 51°11.86 2°46.74 18.783491 4.481113 33.147134 0.836802
2003-09-05 07:32:54 51°11.86 2°46.73 18.786867 4.481852 33.153816 0.93793
2003-09-05 07:33:00 51°11.85 2°46.7 18.820209 4.48143 33.150324 0.93793
2003-09-05 07:33:04 51°11.84 2°46.68 18.787773 4.482168 33.154726 0.93793
2003-09-05 07:33:10 51°11.83 2°46.65 18.824118 4.482168 33.155866 0.904221
2003-09-05 07:33:14 51°11.82 2°46.63 18.824118 4.482168 33.155866 0.904221
2003-09-05 07:33:20 51°11.81 2°46.6 18.792054 4.482379 33.157042 0.836802
2003-09-05 07:33:24 51°11.81 2°46.58 18.793248 4.482696 33.159661 0.904221
2003-09-05 07:33:30 51°11.8 2°46.55 18.792754 4.483012 33.162281 0.870512
2003-09-05 07:33:34 51°11.79 2°46.53 18.791313 4.483962 33.168999 0.904221
2003-09-05 07:33:40 51°11.78 2°46.5 18.791972 4.484278 33.170478 0.93793
2003-09-05 07:33:44 51°11.77 2°46.48 18.791972 4.484278 33.170478 0.93793
2003-09-05 07:33:50 51°11.76 2°46.45 18.792878 4.484911 33.175147 0.904221
2003-09-05 07:33:54 51°11.76 2°46.43 18.79296 4.485017 33.17545 0.93793
2003-09-05 07:34:00 51°11.75 2°46.4 18.791313 4.48586 33.181294 0.904221
2003-09-05 07:34:04 51°11.74 2°46.38 18.794031 4.486282 33.181935 0.93793
2003-09-05 07:34:10 51°11.73 2°46.35 18.828644 4.486915 33.186603 0.836802
2003-09-05 07:34:14 51°11.73 2°46.33 18.828644 4.486915 33.186603 0.836802
2003-09-05 07:34:20 51°11.72 2°46.3 18.797365 4.486493 33.183111 0.904221
2003-09-05 07:34:24 51°11.71 2°46.28 18.798929 4.486071 33.179618 0.904221
2003-09-05 07:34:30 51°11.7 2°46.25 18.799794 4.486493 33.18254 0.904221
2003-09-05 07:34:34 51°11.69 2°46.23 18.799712 4.486071 33.178478 0.904221
2003-09-05 07:34:40 51°11.68 2°46.2 18.799629 4.485333 33.174077 0.93793
2003-09-05 07:34:44 51°11.68 2°46.18 18.799629 4.485333 33.174077 0.93793
2003-09-05 07:34:50 51°11.67 2°46.15 18.833788 4.485649 33.175556 0.870512
2003-09-05 07:34:54 51°11.66 2°46.13 18.801729 4.485438 33.17324 0.904221
2003-09-05 07:35:00 51°11.65 2°46.1 18.802634 4.485544 33.172402 0.904221
2003-09-05 07:35:04 51°11.65 2°46.08 18.805227 4.485755 33.175289 0.93793
2003-09-05 07:35:10 51°11.64 2°46.05 18.808479 4.485755 33.171868 0.870512
2003-09-05 07:35:14 51°11.63 2°46.04 18.808479 4.485755 33.171868 0.870512
2003-09-05 07:35:20 51°11.62 2°46.01 18.814406 4.485227 33.168643 0.93793
2003-09-05 07:35:24 51°11.61 2°45.99 18.819756 4.484911 33.164315 0.93793
2003-09-05 07:35:30 51°11.6 2°45.96 18.824735 4.484911 33.164315 0.870512
2003-09-05 07:35:34 51°11.6 2°45.94 18.830043 4.485016 33.165188 0.870512
2003-09-05 07:35:40 51°11.59 2°45.91 18.86612 4.485544 33.168412 0.93793
2003-09-05 07:35:44 51°11.58 2°45.89 18.86612 4.485544 33.168412 0.93793
2003-09-05 07:35:50 51°11.57 2°45.86 18.836174 4.486388 33.172545 0.904221
2003-09-05 07:35:54 51°11.56 2°45.84 18.839753 4.486915 33.176909 0.870512
2003-09-05 07:36:00 51°11.55 2°45.81 18.838601 4.487759 33.181041 0.97164
2003-09-05 07:36:04 51°11.55 2°45.79 18.839301 4.489342 33.190712 0.904221
2003-09-05 07:36:10 51°11.54 2°45.76 18.872905 4.491029 33.199544 0.870512
2003-09-05 07:36:14 51°11.53 2°45.74 18.872905 4.491029 33.199544 0.870512
2003-09-05 07:36:20 51°11.52 2°45.71 18.839424 4.491873 33.205385 0.97164
2003-09-05 07:36:24 51°11.51 2°45.69 18.843497 4.493034 33.209281 0.904221
2003-09-05 07:36:30 51°11.5 2°45.66 18.848269 4.495249 33.224182 0.93793
2003-09-05 07:36:34 51°11.5 2°45.64 18.850984 4.49546 33.224216 0.93793
2003-09-05 07:36:40 51°11.49 2°45.61 18.852424 4.495249 33.221901 0.870512
2003-09-05 07:36:44 51°11.48 2°45.59 18.852424 4.495249 33.221901 0.870512
2003-09-05 07:36:50 51°11.47 2°45.56 18.852876 4.49641 33.230357 0.97164
2003-09-05 07:36:54 51°11.46 2°45.54 18.856331 4.49641 33.229787 0.904221
2003-09-05 07:37:00 51°11.45 2°45.51 18.857154 4.497254 33.235625 0.904221
2003-09-05 07:37:04 51°11.45 2°45.5 18.857688 4.497359 33.235357 0.97164
2003-09-05 07:37:10 51°11.44 2°45.47 18.858676 4.497675 33.235692 0.93793
2003-09-05 07:37:14 51°11.43 2°45.45 18.858676 4.497675 33.235692 0.93793
2003-09-05 07:37:20 51°11.42 2°45.42 18.858141 4.499469 33.248811 0.93793
2003-09-05 07:37:24 51°11.41 2°45.4 18.857236 4.500418 33.255521 0.97164
2003-09-05 07:37:30 51°11.4 2°45.37 18.855879 4.501473 33.261391 1.039059
2003-09-05 07:37:34 51°11.4 2°45.35 18.855262 4.502634 33.270987 1.173896
2003-09-05 07:37:40 51°11.39 2°45.32 18.854974 4.503267 33.273367 0.97164
2003-09-05 07:37:44 51°11.38 2°45.3 18.854974 4.503267 33.273367 0.97164
2003-09-05 07:37:50 51°11.37 2°45.27 18.887831 4.504744 33.284438 0.93793
2003-09-05 07:37:54 51°11.36 2°45.25 18.888036 4.504955 33.28504 0.93793
2003-09-05 07:38:00 51°11.35 2°45.22 18.887378 4.505377 33.287958 1.005349
2003-09-05 07:38:04 51°11.35 2°45.2 18.920672 4.505904 33.291749 1.005349
2003-09-05 07:38:10 51°11.34 2°45.17 18.854974 4.50601 33.293764 1.039059
2003-09-05 07:38:14 51°11.33 2°45.15 18.854974 4.50601 33.293764 1.039059
2003-09-05 07:38:20 51°11.32 2°45.12 18.857072 4.506221 33.297222 0.93793
2003-09-05 07:38:24 51°11.31 2°45.1 18.856331 4.505693 33.293432 0.97164
2003-09-05 07:38:30 51°11.3 2°45.07 18.856084 4.506326 33.298666 0.93793
2003-09-05 07:38:34 51°11.29 2°45.05 18.891983 4.506959 33.303901 0.97164
2003-09-05 07:38:40 51°11.28 2°45.03 18.857976 4.507276 33.306518 0.93793
2003-09-05 07:38:44 51°11.28 2°45.01 18.857976 4.507276 33.306518 0.93793
2003-09-05 07:38:50 51°11.27 2°44.98 18.856043 4.507487 33.308263 1.005349
2003-09-05 07:38:54 51°11.26 2°44.96 18.855344 4.507909 33.311753 0.97164
2003-09-05 07:39:00 51°11.25 2°44.93 18.853616 4.50928 33.320809 1.005349
2003-09-05 07:39:04 51°11.24 2°44.91 18.851807 4.50928 33.321952 0.97164
2003-09-05 07:39:10 51°11.23 2°44.88 18.850902 4.509913 33.327759 0.93793
2003-09-05 07:39:14 51°11.23 2°44.86 18.850902 4.509913 33.327759 0.93793
2003-09-05 07:39:20 51°11.22 2°44.83 18.849832 4.510757 33.333024 0.93793
2003-09-05 07:39:24 51°11.21 2°44.81 18.850449 4.510863 33.333325 0.904221
2003-09-05 07:39:30 51°11.2 2°44.78 18.849462 4.511074 33.335642 0.93793
2003-09-05 07:39:34 51°11.19 2°44.76 18.848269 4.511707 33.340877 0.97164
2003-09-05 07:39:40 51°11.18 2°44.73 18.848557 4.511707 33.342593 0.97164
2003-09-05 07:39:44 51°11.18 2°44.71 18.848557 4.511707 33.342593 0.97164
2003-09-05 07:39:50 51°11.17 2°44.68 18.845677 4.51234 33.347257 1.039059
2003-09-05 07:39:54 51°11.16 2°44.66 18.844731 4.512762 33.351319 0.97164
2003-09-05 07:40:00 51°11.15 2°44.63 18.843209 4.512551 33.351863 0.97164
2003-09-05 07:40:04 51°11.14 2°44.61 18.843044 4.512973 33.353637 0.93793
2003-09-05 07:40:10 51°11.13 2°44.58 18.843044 4.512656 33.353308 0.904221
2003-09-05 07:40:14 51°11.13 2°44.56 18.843044 4.512656 33.353308 0.904221
2003-09-05 07:40:20 51°11.12 2°44.53 18.840864 4.512656 33.353308 0.93793
2003-09-05 07:40:24 51°11.11 2°44.51 18.841234 4.513078 33.358517 0.97164
2003-09-05 07:40:30 51°11.1 2°44.48 18.843374 4.513184 33.35939 0.836802
2003-09-05 07:40:34 51°11.09 2°44.46 18.844279 4.513184 33.360535 0.870512
2003-09-05 07:40:40 51°11.08 2°44.43 18.845101 4.513395 33.363425 0.836802
2003-09-05 07:40:44 51°11.07 2°44.41 18.845101 4.513395 33.363425 0.836802
2003-09-05 07:40:50 51°11.06 2°44.38 18.844484 4.5135 33.364298 0.870512
2003-09-05 07:40:54 51°11.06 2°44.36 18.842839 4.513606 33.364599 0.870512
2003-09-05 07:41:00 51°11.05 2°44.33 18.843209 4.514766 33.377637 0.836802
2003-09-05 07:41:04 51°11.04 2°44.31 18.842304 4.515505 33.382602 0.904221
2003-09-05 07:41:10 51°11.03 2°44.28 18.909946 4.516454 33.390459 0.904221
2003-09-05 07:41:14 51°11.02 2°44.27 18.909946 4.516454 33.390459 0.904221
2003-09-05 07:41:20 51°11.01 2°44.24 18.843291 4.516771 33.391932 0.870512
2003-09-05 07:41:24 51°11 2°44.22 18.840041 4.517087 33.393977 0.904221
2003-09-05 07:41:30 51°10.99 2°44.19 18.841029 4.517509 33.398043 1.039059
2003-09-05 07:41:34 51°10.99 2°44.17 18.845472 4.517931 33.400961 0.870512
2003-09-05 07:41:40 51°10.98 2°44.14 18.846994 4.518142 33.403854 0.870512
2003-09-05 07:41:44 51°10.97 2°44.12 18.846994 4.518142 33.403854 0.870512
2003-09-05 07:41:50 51°10.96 2°44.09 20.578179 4.497148 33.23076 0.97164
2003-09-05 07:41:54 51°10.95 2°44.07 18.844279 4.519303 33.415178 0.904221
2003-09-05 07:42:00 51°10.94 2°44.04 18.843003 4.520147 33.420443 0.870512
2003-09-05 07:42:04 51°10.93 2°44.02 18.875249 4.520463 33.425931 0.836802
2003-09-05 07:42:10 51°10.93 2°43.99 18.841399 4.521202 33.430322 0.836802
2003-09-05 07:42:14 51°10.92 2°43.97 18.841399 4.521202 33.430322 0.836802
2003-09-05 07:42:20 51°10.91 2°43.94 18.844114 4.522046 33.436733 0.870512
2003-09-05 07:42:24 51°10.9 2°43.92 18.848187 4.522468 33.439652 0.836802
2003-09-05 07:42:30 51°10.89 2°43.89 18.882774 4.522679 33.439676 0.904221
2003-09-05 07:42:34 51°10.88 2°43.87 18.850079 4.523523 33.448958 0.836802
2003-09-05 07:42:40 51°10.88 2°43.84 18.918042 4.524156 33.453623 0.836802
2003-09-05 07:42:44 51°10.87 2°43.82 18.918042 4.524156 33.453623 0.836802
2003-09-05 07:42:50 51°10.86 2°43.79 18.851889 4.525211 33.464079 0.769383
2003-09-05 07:42:54 51°10.85 2°43.77 18.853452 4.526372 33.473686 0.870512
2003-09-05 07:43:00 51°10.84 2°43.74 18.855138 4.52711 33.479225 0.836802
2003-09-05 07:43:04 51°10.84 2°43.72 18.855179 4.528587 33.490303 0.93793
2003-09-05 07:43:10 51°10.83 2°43.69 18.855344 4.530064 33.501381 0.97164
2003-09-05 07:43:14 51°10.82 2°43.67 18.855344 4.530064 33.501381 0.97164
2003-09-05 07:43:20 51°10.81 2°43.64 18.856784 4.531119 33.50954 0.870512
2003-09-05 07:43:24 51°10.81 2°43.62 18.858223 4.532913 33.522087 0.97164
2003-09-05 07:43:30 51°10.8 2°43.58 18.859416 4.534495 33.535765 0.93793
2003-09-05 07:43:34 51°10.8 2°43.56 18.86213 4.535445 33.542475 0.904221
2003-09-05 07:43:40 51°10.79 2°43.53 18.864845 4.536394 33.550912 1.039059
2003-09-05 07:43:44 51°10.79 2°43.51 18.864845 4.536394 33.550912 1.039059
2003-09-05 07:43:50 51°10.79 2°43.47 18.86649 4.537871 33.560262 1.005349
2003-09-05 07:43:54 51°10.79 2°43.45 18.867929 4.539137 33.570745 1.005349
2003-09-05 07:44:00 51°10.79 2°43.42 18.871384 4.540403 33.579499 1.005349
2003-09-05 07:44:04 51°10.8 2°43.39 18.875825 4.541669 33.5871 1.039059
2003-09-05 07:44:10 51°10.8 2°43.36 18.879895 4.543146 33.598754 1.072768
2003-09-05 07:44:14 51°10.8 2°43.34 18.879895 4.543146 33.598754 1.072768
2003-09-05 07:44:20 51°10.81 2°43.3 18.881334 4.54399 33.604012 1.039059
2003-09-05 07:44:24 51°10.81 2°43.28 18.918165 4.544518 33.60665 1.106477
2003-09-05 07:44:30 51°10.81 2°43.25 18.953785 4.545256 33.612188 1.072768
2003-09-05 07:44:34 51°10.81 2°43.22 18.92474 4.546311 33.618617 1.072768
2003-09-05 07:44:40 51°10.82 2°43.19 18.929383 4.547472 33.627072 1.072768
2003-09-05 07:44:44 51°10.82 2°43.17 18.929383 4.547472 33.627072 1.072768
2003-09-05 07:44:50 51°10.83 2°43.13 18.903863 4.54821 33.630878 1.106477
2003-09-05 07:44:54 51°10.83 2°43.11 18.945899 4.549476 33.639629 1.140187
2003-09-05 07:45:00 51°10.83 2°43.08 18.983352 4.550637 33.646352 1.140187
2003-09-05 07:45:04 51°10.83 2°43.05 18.917878 4.55127 33.650438 1.173896
2003-09-05 07:45:10 51°10.84 2°43.02 18.921781 4.551797 33.653074 1.140187
2003-09-05 07:45:14 51°10.84 2°43 18.921781 4.551797 33.653074 1.140187
2003-09-05 07:45:20 51°10.85 2°42.96 18.92548 4.552536 33.655148 1.207606
2003-09-05 07:45:24 51°10.85 2°42.94 18.92663 4.551692 33.646431 1.173896
2003-09-05 07:45:30 51°10.85 2°42.91 18.927329 4.551164 33.638604 1.207606
2003-09-05 07:45:34 51°10.86 2°42.88 18.927452 4.551586 33.635753 1.241315
2003-09-05 07:45:40 51°10.86 2°42.85 18.92737 4.551692 33.633744 1.241315
2003-09-05 07:45:44 51°10.86 2°42.83 18.92737 4.551692 33.633744 1.241315
2003-09-05 07:45:50 51°10.87 2°42.79 18.927822 4.552958 33.639607 1.308734
2003-09-05 07:45:54 51°10.87 2°42.77 18.927082 4.550425 33.616932 1.376153
2003-09-05 07:46:00 51°10.87 2°42.74 18.927123 4.555068 33.650145 1.308734
2003-09-05 07:46:04 51°10.88 2°42.71 18.925644 4.556123 33.658296 1.443571
2003-09-05 07:46:10 51°10.88 2°42.68 18.92511 4.557705 33.66908 1.409862
2003-09-05 07:46:14 51°10.88 2°42.66 18.92511 4.557705 33.66908 1.409862
2003-09-05 07:46:20 51°10.89 2°42.62 18.92474 4.559288 33.681017 1.5447
2003-09-05 07:46:24 51°10.89 2°42.6 18.92437 4.560976 33.693828 1.578409
2003-09-05 07:46:30 51°10.89 2°42.57 18.924247 4.561714 33.698783 1.612118
2003-09-05 07:46:34 51°10.9 2°42.54 18.92437 4.562558 33.705765 1.612118
2003-09-05 07:46:40 51°10.9 2°42.51 18.924535 4.563086 33.711284 1.612118
2003-09-05 07:46:44 51°10.9 2°42.49 18.924535 4.563086 33.711284 1.612118
2003-09-05 07:46:50 51°10.91 2°42.45 18.958837 4.56393 33.717112 1.612118
2003-09-05 07:46:54 51°10.91 2°42.43 18.927 4.564563 33.724082 1.679537
2003-09-05 07:47:00 51°10.92 2°42.4 18.928685 4.566251 33.736893 1.679537
2003-09-05 07:47:04 51°10.92 2°42.38 18.929712 4.562347 33.705174 1.746956
2003-09-05 07:47:10 51°10.92 2°42.34 18.931191 4.567412 33.74823 1.713247
2003-09-05 07:47:14 51°10.93 2°42.32 18.931191 4.567412 33.74823 1.713247
2003-09-05 07:47:20 51°10.93 2°42.29 18.930328 4.568678 33.75755 1.713247
2003-09-05 07:47:24 51°10.93 2°42.26 18.965244 4.569838 33.768311 1.713247
2003-09-05 07:47:30 51°10.94 2°42.23 18.933779 4.570049 33.769478 1.746956
2003-09-05 07:47:34 51°10.94 2°42.21 18.936286 4.571738 33.78287 1.780665
2003-09-05 07:47:40 51°10.95 2°42.17 19.004945 4.572582 33.788697 1.848084
2003-09-05 07:47:44 51°10.95 2°42.15 19.004945 4.572582 33.788697 1.848084
2003-09-05 07:47:50 51°10.95 2°42.12 18.940189 4.572687 33.789571 1.814375
2003-09-05 07:47:52 51°10.96 2°42.11 18.941791 4.573531 33.795977 1.915503
2003-09-05 07:48:00 51°10.96 2°42.06 18.943763 4.573742 33.797144 1.949212
2003-09-05 07:48:04 51°10.97 2°42.04 18.947254 4.574903 33.805591 1.915503
2003-09-05 07:48:10 51°10.97 2°42.01 18.950253 4.57543 33.808799 1.949212
2003-09-05 07:48:14 51°10.97 2°41.98 18.950253 4.57543 33.808799 1.949212
2003-09-05 07:48:20 51°10.98 2°41.95 18.952307 4.575958 33.812006 1.949212
2003-09-05 07:48:24 51°10.98 2°41.93 18.956209 4.576696 33.816381 2.016631
2003-09-05 07:48:30 51°10.98 2°41.9 18.960891 4.577224 33.819588 1.982922
2003-09-05 07:48:34 51°10.99 2°41.87 18.965778 4.578279 33.826581 2.08405
2003-09-05 07:48:40 51°10.99 2°41.84 18.969392 4.579123 33.833566 2.117759
2003-09-05 07:48:44 51°10.99 2°41.82 18.969392 4.579123 33.833566 2.117759
2003-09-05 07:48:50 51°10.99 2°41.78 18.972184 4.5806 33.842313 2.151469
2003-09-05 07:48:54 51°10.99 2°41.76 18.974771 4.581339 33.847845 2.151469
2003-09-05 07:49:00 51°10.99 2°41.73 18.976865 4.582499 33.853972 2.218888
2003-09-05 07:49:04 51°10.99 2°41.71 18.978015 4.583132 33.858051 2.320016
2003-09-05 07:49:10 51°10.98 2°41.67 18.979205 4.585031 33.869707 2.320016
2003-09-05 07:49:14 51°10.98 2°41.65 18.979205 4.585031 33.869707 2.320016
2003-09-05 07:49:20 51°10.97 2°41.62 18.979575 4.58577 33.873499 2.387435
2003-09-05 07:49:24 51°10.97 2°41.6 18.979903 4.58693 33.880782 2.387435
2003-09-05 07:49:30 51°10.96 2°41.57 18.979534 4.58788 33.886318 2.387435
2003-09-05 07:49:34 51°10.95 2°41.55 18.979288 4.589462 33.896512 2.421144
2003-09-05 07:49:40 51°10.94 2°41.52 18.979739 4.590201 33.900302 2.421144
2003-09-05 07:49:44 51°10.94 2°41.51 18.979739 4.590201 33.900302 2.421144
2003-09-05 07:49:50 51°10.92 2°41.48 19.013276 4.591678 33.912522 2.454853
2003-09-05 07:49:54 51°10.91 2°41.46 19.013194 4.592839 33.920382 2.454853
2003-09-05 07:50:00 51°10.9 2°41.44 18.979082 4.593683 33.925624 2.454853
2003-09-05 07:50:04 51°10.89 2°41.42 18.979739 4.594843 33.934645 2.421144
2003-09-05 07:50:10 51°10.88 2°41.39 18.980355 4.59516 33.937845 2.421144
2003-09-05 07:50:14 51°10.87 2°41.38 18.980355 4.59516 33.937845 2.421144
2003-09-05 07:50:20 51°10.86 2°41.35 18.979821 4.595054 33.938133 2.421144
2003-09-05 07:50:24 51°10.85 2°41.33 18.979082 4.596004 33.944247 2.421144
2003-09-05 07:50:30 51°10.84 2°41.31 18.978672 4.596426 33.946578 2.421144
2003-09-05 07:50:34 51°10.83 2°41.29 18.975674 4.596954 33.950942 2.421144
2003-09-05 07:50:40 51°10.82 2°41.26 18.973868 4.597376 33.952691 2.488563
2003-09-05 07:50:44 51°10.81 2°41.24 18.973868 4.597376 33.952691 2.488563
2003-09-05 07:50:50 51°10.8 2°41.21 18.970336 4.597165 33.952107 2.488563
2003-09-05 07:50:54 51°10.79 2°41.2 18.967379 4.597481 33.952983 2.488563
2003-09-05 07:51:00 51°10.78 2°41.17 18.963766 4.597165 33.952107 2.454853
2003-09-05 07:51:04 51°10.77 2°41.15 18.9597 4.597587 33.953856 2.454853
2003-09-05 07:51:10 51°10.76 2°41.12 18.956003 4.597376 33.952111 2.454853
2003-09-05 07:51:14 51°10.75 2°41.1 18.956003 4.597376 33.952111 2.454853
2003-09-05 07:51:20 51°10.74 2°41.07 18.951773 4.596848 33.948908 2.454853
2003-09-05 07:51:24 51°10.73 2°41.06 18.949513 4.596215 33.945993 2.421144
2003-09-05 07:51:30 51°10.72 2°41.03 18.94709 4.596848 33.95065 2.421144
2003-09-05 07:51:34 51°10.71 2°41.01 18.942941 4.596321 33.949189 2.353725
2003-09-05 07:51:40 51°10.7 2°40.99 18.972718 4.595265 33.942202 2.286306
2003-09-05 07:51:44 51°10.69 2°40.97 18.972718 4.595265 33.942202 2.286306
2003-09-05 07:51:50 51°10.68 2°40.94 18.96972 4.594527 33.939575 2.218888
2003-09-05 07:51:54 51°10.67 2°40.93 18.965942 4.593894 33.937241 2.218888
2003-09-05 07:51:58 51°10.66 2°40.91 18.929835 4.593366 33.93636 2.151469
2003-09-05 07:52:04 51°10.65 2°40.88 18.926795 4.591995 33.927331 2.117759
2003-09-05 07:52:09 51°10.63 2°40.86 18.92285 4.591045 33.922376 2.08405
2003-09-05 07:52:15 51°10.62 2°40.84 18.92285 4.591045 33.922376 2.08405
2003-09-05 07:52:18 51°10.61 2°40.82 18.951526 4.591256 33.925284 2.050341
2003-09-05 07:52:25 51°10.6 2°40.79 18.915371 4.58999 33.918289 2.08405
2003-09-05 07:52:29 51°10.59 2°40.78 18.911713 4.589674 33.91683 2.016631
2003-09-05 07:52:35 51°10.57 2°40.75 18.907767 4.588935 33.914782 1.982922
2003-09-05 07:52:39 51°10.57 2°40.74 18.904561 4.588513 33.913611 1.881794
2003-09-05 07:52:44 51°10.55 2°40.71 18.904561 4.588513 33.913611 1.881794
2003-09-05 07:52:49 51°10.54 2°40.69 18.899752 4.588302 33.913026 1.881794
2003-09-05 07:52:55 51°10.53 2°40.67 18.928972 4.587142 33.906902 1.915503
2003-09-05 07:52:59 51°10.52 2°40.65 18.889927 4.586931 33.908058 1.881794
2003-09-05 07:53:05 51°10.5 2°40.63 18.882033 4.58672 33.908635 1.848084
2003-09-05 07:53:09 51°10.5 2°40.61 18.871013 4.586403 33.908918 1.814375
2003-09-05 07:53:15 51°10.48 2°40.59 18.871013 4.586403 33.908918 1.814375
2003-09-05 07:53:19 51°10.47 2°40.57 18.864392 4.585876 33.907455 1.814375
2003-09-05 07:53:25 51°10.46 2°40.54 18.926384 4.586087 33.910945 1.814375
2003-09-05 07:53:29 51°10.45 2°40.53 18.855179 4.585559 33.910644 1.814375
2003-09-05 07:53:35 51°10.44 2°40.5 18.850902 4.584926 33.908887 1.746956
2003-09-05 07:53:39 51°10.43 2°40.48 18.847199 4.584821 33.910339 1.780665
2003-09-05 07:53:45 51°10.41 2°40.46 18.847199 4.584821 33.910339 1.780665
2003-09-05 07:53:49 51°10.4 2°40.44 18.845472 4.584083 33.910033 1.814375
2003-09-05 07:53:55 51°10.39 2°40.42 18.841687 4.583661 33.912351 1.814375
2003-09-05 07:53:59 51°10.38 2°40.4 18.873604 4.583239 33.91467 1.848084
2003-09-05 07:54:05 51°10.37 2°40.38 18.836709 4.582817 33.91699 1.814375
2003-09-05 07:54:09 51°10.36 2°40.36 18.834693 4.581867 33.911446 1.848084
2003-09-05 07:54:15 51°10.34 2°40.33 18.834693 4.581867 33.911446 1.848084
2003-09-05 07:54:19 51°10.33 2°40.32 18.832882 4.581867 33.91552 1.915503
2003-09-05 07:54:25 51°10.32 2°40.29 18.865133 4.581445 33.916095 1.848084
2003-09-05 07:54:29 51°10.31 2°40.28 18.830537 4.580918 33.914049 1.814375
2003-09-05 07:54:35 51°10.3 2°40.25 18.828891 4.579968 33.910249 1.814375
2003-09-05 07:54:39 51°10.29 2°40.23 18.828809 4.579652 33.909953 1.848084
2003-09-05 07:54:45 51°10.27 2°40.21 18.828809 4.579652 33.909953 1.848084
2003-09-05 07:54:49 51°10.26 2°40.19 18.827821 4.579757 33.912575 1.881794
2003-09-05 07:54:55 51°10.25 2°40.17 18.826834 4.578702 33.906152 1.848084
2003-09-05 07:54:59 51°10.24 2°40.15 18.825352 4.578175 33.904106 1.848084
2003-09-05 07:55:05 51°10.23 2°40.13 18.857072 4.577542 33.900601 1.814375
2003-09-05 07:55:09 51°10.22 2°40.11 18.821937 4.577542 33.901766 1.915503
2003-09-05 07:55:15 51°10.2 2°40.09 18.821937 4.577542 33.901766 1.915503
2003-09-05 07:55:19 51°10.19 2°40.07 18.819221 4.576803 33.89855 1.848084
2003-09-05 07:55:25 51°10.18 2°40.05 18.818562 4.576592 33.896217 1.982922
2003-09-05 07:55:29 51°10.17 2°40.03 18.818686 4.576487 33.897089 1.881794
2003-09-05 07:55:35 51°10.16 2°40 18.820044 4.575959 33.893295 1.915503
2003-09-05 07:55:39 51°10.15 2°39.99 18.820579 4.575748 33.891544 1.881794
2003-09-05 07:55:45 51°10.13 2°39.96 18.820579 4.575748 33.891544 1.881794
2003-09-05 07:55:49 51°10.12 2°39.95 18.855879 4.575115 33.887457 1.881794
2003-09-05 07:55:55 51°10.11 2°39.92 18.82313 4.575115 33.889203 1.915503
2003-09-05 07:55:59 51°10.1 2°39.9 18.824571 4.575115 33.891532 1.881794
2003-09-05 07:56:05 51°10.09 2°39.88 18.825106 4.574377 33.886568 1.814375
2003-09-05 07:56:09 51°10.08 2°39.86 18.893545 4.574693 33.889777 1.881794
2003-09-05 07:56:15 51°10.06 2°39.84 18.893545 4.574693 33.889777 1.881794
2003-09-05 07:56:19 51°10.05 2°39.82 18.82564 4.573744 33.881898 1.814375
2003-09-05 07:56:25 51°10.04 2°39.79 18.858676 4.574799 33.890652 1.881794
2003-09-05 07:56:29 51°10.03 2°39.78 18.824735 4.574271 33.885693 1.982922
2003-09-05 07:56:35 51°10.02 2°39.75 18.825106 4.574693 33.888612 1.848084
2003-09-05 07:56:39 51°10.01 2°39.74 18.824653 4.574693 33.887448 1.848084
2003-09-05 07:56:45 51°9.99 2°39.71 18.824653 4.574693 33.887448 1.848084
2003-09-05 07:56:49 51°9.98 2°39.69 18.859046 4.574799 33.887741 1.746956
2003-09-05 07:56:55 51°9.97 2°39.67 18.826175 4.574482 33.883951 1.814375
2003-09-05 07:56:59 51°9.96 2°39.65 18.828644 4.575326 33.890371 1.780665
2003-09-05 07:57:05 51°9.95 2°39.63 18.830537 4.574377 33.88424 1.780665
2003-09-05 07:57:09 51°9.94 2°39.61 18.832594 4.57501 33.889492 1.949212
2003-09-05 07:57:15 51°9.92 2°39.58 18.832594 4.57501 33.889492 1.949212
2003-09-05 07:57:19 51°9.91 2°39.57 18.835351 4.574271 33.883365 1.746956
2003-09-05 07:57:25 51°9.9 2°39.54 18.837161 4.575115 33.890367 1.746956
2003-09-05 07:57:29 51°9.89 2°39.53 18.839054 4.57501 33.888328 1.848084
2003-09-05 07:57:35 51°9.87 2°39.5 18.840576 4.574799 33.885995 1.814375
2003-09-05 07:57:39 51°9.87 2°39.48 18.843003 4.575115 33.888621 1.848084
2003-09-05 07:57:45 51°9.85 2°39.46 18.843003 4.575115 33.888621 1.848084
2003-09-05 07:57:49 51°9.84 2°39.44 18.844567 4.57501 33.886581 1.780665
2003-09-05 07:57:55 51°9.83 2°39.42 18.880471 4.574693 33.883373 1.814375
2003-09-05 07:57:59 51°9.82 2°39.4 18.848804 4.575643 33.889505 1.814375
2003-09-05 07:58:05 51°9.8 2°39.37 18.84938 4.575115 33.883964 1.814375
2003-09-05 07:58:09 51°9.79 2°39.36 18.849544 4.576381 33.893303 1.746956
2003-09-05 07:58:15 51°9.78 2°39.33 18.849544 4.576381 33.893303 1.746956
2003-09-05 07:58:19 51°9.77 2°39.31 18.847487 4.575748 33.885724 1.746956
2003-09-05 07:58:25 51°9.76 2°39.28 18.846048 4.576276 33.887771 1.780665
2003-09-05 07:58:29 51°9.75 2°39.26 18.876729 4.575854 33.883689 1.713247
2003-09-05 07:58:35 51°9.75 2°39.23 22.25847 4.576592 33.888651 1.713247
2003-09-05 07:58:39 51°9.74 2°39.21 18.835968 4.576592 33.887487 1.746956
2003-09-05 07:58:45 51°9.74 2°39.18 18.835968 4.576592 33.887487 1.746956
2003-09-05 07:58:49 51°9.73 2°39.16 18.8328 4.57712 33.889535 1.713247
2003-09-05 07:58:55 51°9.73 2°39.12 18.828192 4.576909 33.887203 1.713247
2003-09-05 07:58:59 51°9.73 2°39.1 18.826628 4.576909 33.88604 1.679537
2003-09-05 07:59:05 51°9.73 2°39.07 18.824612 4.57617 33.879915 1.713247
2003-09-05 07:59:09 51°9.74 2°39.04 18.823377 4.577225 33.888082 1.679537
2003-09-05 07:59:15 51°9.74 2°39.01 18.823377 4.577225 33.888082 1.679537
2003-09-05 07:59:19 51°9.74 2°38.99 18.82383 4.576276 33.881953 1.713247
2003-09-05 07:59:25 51°9.75 2°38.96 18.824941 4.575748 33.879906 1.679537
2003-09-05 07:59:29 51°9.75 2°38.93 18.827698 4.574587 33.872026 1.679537
2003-09-05 07:59:35 51°9.76 2°38.9 18.830743 4.573638 33.868222 1.679537
2003-09-05 07:59:39 51°9.77 2°38.88 18.834158 4.57311 33.86501 1.645828
2003-09-05 07:59:45 51°9.78 2°38.86 18.834158 4.57311 33.86501 1.645828
2003-09-05 07:59:49 51°9.79 2°38.84 18.834981 4.570684 33.846628 1.645828
2003-09-05 07:59:55 51°9.81 2°38.81 18.83461 4.571633 33.85683 1.679537
2003-09-05 07:59:59 51°9.82 2°38.8 18.831977 4.571633 33.858574 1.612118
2003-09-05 08:00:05 51°9.84 2°38.78 18.827204 4.572161 33.861787 1.578409
2003-09-05 08:00:09 51°9.85 2°38.77 18.820826 4.572794 33.865874 1.612118
2003-09-05 08:00:15 51°9.87 2°38.75 18.820826 4.572794 33.865874 1.612118
2003-09-05 08:00:19 51°9.88 2°38.74 18.813871 4.57311 33.866173 1.645828
2003-09-05 08:00:25 51°9.9 2°38.73 18.807285 4.574377 33.874929 1.645828
2003-09-05 08:00:29 51°9.92 2°38.72 18.803457 4.574799 33.876684 1.645828
2003-09-05 08:00:35 51°9.94 2°38.71 18.867847 4.57501 33.877271 1.679537
2003-09-05 08:00:39 51°9.95 2°38.7 18.797859 4.574904 33.876977 1.679537
2003-09-05 08:00:45 51°9.98 2°38.69 18.797859 4.574904 33.876977 1.679537
2003-09-05 08:00:49 51°9.99 2°38.68 18.830907 4.575748 33.886306 1.780665
2003-09-05 08:00:55 51°10.01 2°38.67 18.799588 4.575643 33.888922 1.780665
2003-09-05 08:00:59 51°10.03 2°38.66 18.803622 4.574588 33.885408 1.814375
2003-09-05 08:01:05 51°10.05 2°38.65 18.808767 4.572794 33.873438 1.915503
2003-09-05 08:01:09 51°10.06 2°38.64 18.813171 4.572161 33.871678 1.915503
2003-09-05 08:01:15 51°10.08 2°38.62 18.813171 4.572161 33.871678 1.915503
2003-09-05 08:01:19 51°10.1 2°38.61 18.816957 4.571212 33.869037 1.982922
2003-09-05 08:01:25 51°10.12 2°38.59 18.819139 4.571317 33.871658 2.050341
2003-09-05 08:01:29 51°10.13 2°38.58 18.822637 4.569946 33.862604 2.050341
2003-09-05 08:01:35 51°10.15 2°38.56 18.825188 4.570579 33.869022 2.08405
2003-09-05 08:01:39 51°10.16 2°38.55 18.830167 4.570895 33.871067 2.151469
2003-09-05 08:01:45 51°10.18 2°38.53 18.830167 4.570895 33.871067 2.151469
2003-09-05 08:01:49 51°10.19 2°38.52 18.835269 4.571106 33.870489 2.117759
2003-09-05 08:01:55 51°10.21 2°38.5 18.844196 4.571739 33.874579 2.117759
2003-09-05 08:01:59 51°10.22 2°38.49 18.854357 4.572583 33.878672 2.117759
2003-09-05 08:02:05 51°10.24 2°38.47 18.863323 4.573638 33.885098 2.151469
2003-09-05 08:02:09 51°10.26 2°38.46 18.908466 4.57501 33.89415 2.151469
2003-09-05 08:02:15 51°10.27 2°38.44 18.908466 4.57501 33.89415 2.151469
2003-09-05 08:02:19 51°10.29 2°38.42 18.887748 4.57617 33.900286 2.185178
2003-09-05 08:02:25 51°10.31 2°38.4 18.901766 4.577014 33.903795 2.117759
2003-09-05 08:02:29 51°10.32 2°38.39 18.912905 4.578913 33.916639 2.185178
2003-09-05 08:02:35 51°10.34 2°38.37 18.921329 4.579546 33.917813 2.218888
2003-09-05 08:02:39 51°10.35 2°38.36 18.927822 4.535761 33.547399 2.151469
2003-09-05 08:02:45 51°10.37 2°38.34 18.927822 4.535761 33.547399 2.151469
2003-09-05 08:02:49 51°10.38 2°38.32 18.963396 4.5825 33.929502 2.185178
2003-09-05 08:02:55 51°10.4 2°38.3 18.930944 4.584188 33.934765 2.286306
2003-09-05 08:02:59 51°10.4 2°38.28 19.002687 4.586932 33.950521 2.320016
2003-09-05 08:03:05 51°10.42 2°38.25 18.943598 4.588303 33.951991 2.353725
2003-09-05 08:03:09 51°10.42 2°38.23 18.952224 4.590835 33.965408 2.421144
2003-09-05 08:03:15 51°10.43 2°38.2 18.952224 4.590835 33.965408 2.421144
2003-09-05 08:03:19 51°10.44 2°38.18 18.960891 4.592734 33.973576 2.454853
2003-09-05 08:03:25 51°10.44 2°38.15 18.967667 4.57733 33.839586 2.522272
2003-09-05 08:03:29 51°10.44 2°38.13 18.974935 4.595372 33.984948 2.522272
2003-09-05 08:03:35 51°10.44 2°38.09 19.013522 4.598432 34.00622 2.555982
2003-09-05 08:03:39 51°10.44 2°38.07 18.982695 4.598959 34.008259 2.589691
2003-09-05 08:03:45 51°10.44 2°38.04 18.982695 4.598959 34.008259 2.589691
2003-09-05 08:03:49 51°10.43 2°38.02 18.988032 4.59917 34.005929 2.65711
2003-09-05 08:03:55 51°10.42 2°37.99 18.991604 4.601702 34.023409 2.65711
2003-09-05 08:03:59 51°10.42 2°37.98 19.059881 4.602652 34.024281 2.690819
2003-09-05 08:04:05 51°10.4 2°37.95 18.991974 4.602441 34.016709 2.758238
2003-09-05 08:04:09 51°10.39 2°37.93 18.991153 4.606028 34.038256 2.859366
2003-09-05 08:04:15 51°10.38 2°37.91 18.991153 4.606028 34.038256 2.859366
2003-09-05 08:04:19 51°10.37 2°37.9 18.990455 4.606133 34.037382 2.758238
2003-09-05 08:04:25 51°10.35 2°37.87 18.990003 4.607399 34.041456 2.859366
2003-09-05 08:04:29 51°10.34 2°37.86 19.022632 4.607716 34.039417 2.825657
2003-09-05 08:04:35 51°10.33 2°37.84 18.987745 4.609193 34.04873 2.893076
2003-09-05 08:04:39 51°10.32 2°37.82 18.98327 4.607821 34.03505 2.893076
2003-09-05 08:04:45 51°10.3 2°37.8 18.98327 4.607821 34.03505 2.893076
2003-09-05 08:04:49 51°10.29 2°37.79 19.012619 4.609615 34.048729 2.825657
2003-09-05 08:04:55 51°10.27 2°37.77 18.9728 4.610459 34.055132 2.859366
2003-09-05 08:04:59 51°10.26 2°37.76 18.968365 4.609931 34.049019 2.926785
2003-09-05 08:05:05 51°10.24 2°37.73 18.996161 4.610564 34.053675 2.893076
2003-09-05 08:05:09 51°10.23 2°37.72 18.991358 4.610248 34.050473 2.960494
2003-09-05 08:05:15 51°10.22 2°37.7 18.991358 4.610248 34.050473 2.960494
2003-09-05 08:05:19 51°10.21 2°37.68 18.987581 4.610142 34.051347 3.027913
2003-09-05 08:05:25 51°10.19 2°37.66 18.950869 4.607399 34.028647 2.926785
2003-09-05 08:05:29 51°10.18 2°37.65 18.947994 4.606977 34.028647 2.960494
2003-09-05 08:05:35 51°10.17 2°37.62 18.9452 4.605078 34.01584 2.994204
2003-09-05 08:05:39 51°10.16 2°37.61 18.977645 4.605605 34.02137 2.960494
2003-09-05 08:05:45 51°10.14 2°37.58 18.977645 4.605605 34.02137 2.960494
2003-09-05 08:05:49 51°10.13 2°37.57 18.942243 4.604445 34.017003 2.960494
2003-09-05 08:05:55 51°10.11 2°37.54 18.941626 4.603706 34.013218 2.859366
2003-09-05 08:05:59 51°10.1 2°37.53 18.939983 4.603917 34.017293 2.791947
2003-09-05 08:06:05 51°10.09 2°37.51 18.940271 4.602229 34.006811 2.926785
2003-09-05 08:06:09 51°10.08 2°37.49 18.938011 4.604234 34.026901 2.825657
2003-09-05 08:06:15 51°10.06 2°37.47 18.938011 4.604234 34.026901 2.825657
2003-09-05 08:06:19 51°10.05 2°37.45 18.937477 4.603707 34.024863 2.859366
2003-09-05 08:06:25 51°10.04 2°37.43 18.936738 4.60339 34.024572 2.758238
2003-09-05 08:06:29 51°10.03 2°37.41 18.970172 4.603285 34.025446 2.690819
2003-09-05 08:06:35 51°10.01 2°37.39 18.968735 4.603285 34.026611 2.825657
2003-09-05 08:06:39 51°10 2°37.37 18.93267 4.602335 34.019912 2.791947
2003-09-05 08:06:45 51°9.99 2°37.35 18.93267 4.602335 34.019912 2.791947
2003-09-05 08:06:49 51°9.98 2°37.33 18.92626 4.602968 34.026903 2.724529
2003-09-05 08:06:55 51°9.96 2°37.31 18.921494 4.602441 34.022534 2.724529
2003-09-05 08:06:59 51°9.95 2°37.3 18.948199 4.602124 34.021077 2.724529
2003-09-05 08:07:05 51°9.93 2°37.27 18.907069 4.601913 34.019912 2.724529
2003-09-05 08:07:09 51°9.92 2°37.26 18.899423 4.602652 34.025446 2.690819
2003-09-05 08:07:15 51°9.91 2°37.24 18.899423 4.602652 34.025446 2.690819
2003-09-05 08:07:19 51°9.9 2°37.22 18.893709 4.602124 34.023991 2.6234
2003-09-05 08:07:25 51°9.88 2°37.2 18.8889 4.601491 34.019913 2.589691
2003-09-05 08:07:29 51°9.87 2°37.18 18.88376 4.601597 34.021952 2.6234
2003-09-05 08:07:35 51°9.86 2°37.16 18.880307 4.600542 34.017874 2.589691
2003-09-05 08:07:39 51°9.85 2°37.14 18.877182 4.599381 34.012338 2.555982
2003-09-05 08:07:45 51°9.83 2°37.12 18.877182 4.599381 34.012338 2.555982
2003-09-05 08:07:49 51°9.82 2°37.1 18.873892 4.598643 34.009133 2.555982
2003-09-05 08:07:55 51°9.8 2°37.08 18.904479 4.596743 33.997477 2.488563
2003-09-05 08:07:59 51°9.79 2°37.07 18.935998 4.595372 33.992521 2.488563
2003-09-05 08:08:05 51°9.78 2°37.04 18.865667 4.594528 33.989022 2.454853
2003-09-05 08:08:09 51°9.77 2°37.03 18.896053 4.593367 33.98523 2.488563
2003-09-05 08:08:15 51°9.75 2°37.01 18.896053 4.593367 33.98523 2.488563
2003-09-05 08:08:19 51°9.74 2°36.99 18.892353 4.592312 33.979398 2.454853
2003-09-05 08:08:25 51°9.73 2°36.97 18.856331 4.591152 33.97444 2.454853
2003-09-05 08:08:29 51°9.72 2°36.95 18.852876 4.590519 33.97094 2.421144
2003-09-05 08:08:35 51°9.7 2°36.93 18.850161 4.589464 33.964524 2.387435
2003-09-05 08:08:39 51°9.69 2°36.91 18.848022 4.588409 33.95869 2.387435
2003-09-05 08:08:45 51°9.68 2°36.89 18.848022 4.588409 33.95869 2.387435
2003-09-05 08:08:49 51°9.67 2°36.87 18.845924 4.587459 33.953148 2.387435
2003-09-05 08:08:55 51°9.65 2°36.85 18.843374 4.586615 33.949062 2.421144
2003-09-05 08:08:59 51°9.64 2°36.83 18.8407 4.586088 33.947018 2.353725
2003-09-05 08:09:05 51°9.63 2°36.81 18.838519 4.584505 33.935061 2.387435
2003-09-05 08:09:09 51°9.62 2°36.8 18.837326 4.584294 33.93564 2.387435
2003-09-05 08:09:15 51°9.6 2°36.77 18.837326 4.584294 33.93564 2.387435
2003-09-05 08:09:19 51°9.59 2°36.76 18.83568 4.584611 33.940595 2.353725
2003-09-05 08:09:25 51°9.57 2°36.73 18.834981 4.582078 33.922508 2.387435
2003-09-05 08:09:29 51°9.56 2°36.72 18.834158 4.582606 33.929795 2.387435
2003-09-05 08:09:35 51°9.55 2°36.7 18.833335 4.582078 33.927167 2.353725
2003-09-05 08:09:39 51°9.54 2°36.68 18.833458 4.581234 33.922496 2.353725
2003-09-05 08:09:45 51°9.52 2°36.66 18.833458 4.581234 33.922496 2.353725
2003-09-05 08:09:49 51°9.51 2°36.64 18.834076 4.580707 33.92045 2.421144
2003-09-05 08:09:55 51°9.5 2°36.62 18.868135 4.579968 33.915489 2.387435
2003-09-05 08:09:59 51°9.49 2°36.6 18.833993 4.579968 33.917236 2.353725
2003-09-05 08:10:05 51°9.47 2°36.58 18.86649 4.579652 33.915776 2.353725
2003-09-05 08:10:09 51°9.46 2°36.56 18.830084 4.579019 33.911107 2.387435
2003-09-05 08:10:15 51°9.45 2°36.54 18.830084 4.579019 33.911107 2.387435
2003-09-05 08:10:19 51°9.44 2°36.52 18.860691 4.578913 33.912561 2.353725
2003-09-05 08:10:25 51°9.42 2°36.5 18.822925 4.57923 33.91344 2.421144
2003-09-05 08:10:29 51°9.41 2°36.49 18.819591 4.578808 33.911104 2.387435
2003-09-05 08:10:35 51°9.39 2°36.46 18.810414 4.579019 33.912272 2.353725
2003-09-05 08:10:39 51°9.38 2°36.45 18.832718 4.579019 33.911689 2.387435
2003-09-05 08:10:45 51°9.37 2°36.43 18.832718 4.579019 33.911689 2.387435
2003-09-05 08:10:49 51°9.36 2°36.41 18.789214 4.578702 33.910811 2.387435
2003-09-05 08:10:55 51°9.35 2°36.39 18.775338 4.578913 33.913726 2.353725
2003-09-05 08:10:59 51°9.34 2°36.37 18.767266 4.578491 33.913137 2.387435
2003-09-05 08:11:05 51°9.32 2°36.35 18.757505 4.577647 33.907299 2.421144
2003-09-05 08:11:09 51°9.31 2°36.33 18.820497 4.577225 33.905545 2.421144
2003-09-05 08:11:15 51°9.3 2°36.31 18.820497 4.577225 33.905545 2.421144
2003-09-05 08:11:19 51°9.29 2°36.3 18.747701 4.576065 33.901158 2.421144
2003-09-05 08:11:25 51°9.27 2°36.27 18.741975 4.574799 33.895894 2.421144
2003-09-05 08:11:29 51°9.27 2°36.25 18.74008 4.573322 33.890625 2.421144
2003-09-05 08:11:35 51°9.26 2°36.22 18.738226 4.571528 33.883892 2.421144
2003-09-05 08:11:39 51°9.25 2°36.2 18.735589 4.569313 33.871324 2.421144
2003-09-05 08:11:45 51°9.24 2°36.18 18.735589 4.569313 33.871324 2.421144
2003-09-05 08:11:49 51°9.24 2°36.16 18.767513 4.566992 33.861371 2.387435
2003-09-05 08:11:55 51°9.24 2°36.14 18.732128 4.566359 33.860774 2.454853
2003-09-05 08:11:59 51°9.24 2°36.12 18.730603 4.564776 33.852291 2.454853
2003-09-05 08:12:05 51°9.24 2°36.1 18.728872 4.563827 33.847317 2.488563
2003-09-05 08:12:09 51°9.24 2°36.09 18.72743 4.562772 33.842048 2.421144
2003-09-05 08:12:15 51°9.24 2°36.07 18.72743 4.562772 33.842048 2.421144
2003-09-05 08:12:19 51°9.24 2°36.06 18.725535 4.56235 33.840873 2.421144
2003-09-05 08:12:25 51°9.24 2°36.04 18.723969 4.560556 33.828886 2.454853
2003-09-05 08:12:29 51°9.24 2°36.03 18.723392 4.560662 33.831509 2.421144
2003-09-05 08:12:35 51°9.25 2°36.01 18.720878 4.559818 33.826827 2.488563
2003-09-05 08:12:39 51°9.25 2°36.01 18.721784 4.559396 33.826233 2.421144
2003-09-05 08:12:45 51°9.26 2°35.99 18.721784 4.559396 33.826233 2.421144
2003-09-05 08:12:49 51°9.26 2°35.98 18.725122 4.559396 33.826233 2.387435
2003-09-05 08:12:55 51°9.26 2°35.97 18.759894 4.559396 33.82798 2.387435
2003-09-05 08:12:59 51°9.27 2°35.97 18.737896 4.558657 33.823009 2.387435
2003-09-05 08:13:05 51°9.27 2°35.95 18.742181 4.558974 33.827386 2.353725
2003-09-05 08:13:09 51°9.27 2°35.95 18.751903 4.558868 33.827675 2.353725
2003-09-05 08:13:15 51°9.28 2°35.94 18.751903 4.558868 33.827675 2.353725
2003-09-05 08:13:19 51°9.28 2°35.93 18.761624 4.558657 33.827669 2.353725
2003-09-05 08:13:25 51°9.29 2°35.92 18.771632 4.558552 33.826792 2.320016
2003-09-05 08:13:29 51°9.29 2°35.92 18.781144 4.558552 33.827957 2.286306
2003-09-05 08:13:35 51°9.29 2°35.91 18.786249 4.559924 33.837608 2.353725
2003-09-05 08:13:39 51°9.3 2°35.9 18.789831 4.56119 33.845797 2.286306
2003-09-05 08:13:45 51°9.3 2°35.89 18.789831 4.56119 33.845797 2.286306
2003-09-05 08:13:49 51°9.3 2°35.89 18.794689 4.562034 33.849897 2.320016
2003-09-05 08:13:55 51°9.31 2°35.88 18.799917 4.563405 33.854299 2.320016
2003-09-05 08:13:59 51°9.31 2°35.87 18.837244 4.564249 33.856649 2.320016
2003-09-05 08:14:05 51°9.31 2°35.86 18.806174 4.565937 33.864261 2.320016
2003-09-05 08:14:09 51°9.32 2°35.86 18.808891 4.568047 33.873046 2.320016
2003-09-05 08:14:15 51°9.32 2°35.85 18.808891 4.568047 33.873046 2.320016
2003-09-05 08:14:19 51°9.32 2°35.84 18.810743 4.568363 33.872178 2.320016
2003-09-05 08:14:25 51°9.32 2°35.84 18.8135 4.570368 33.882414 2.286306
2003-09-05 08:14:29 51°9.33 2°35.83 18.815929 4.571001 33.883591 2.286306
2003-09-05 08:14:35 51°9.33 2°35.82 18.818233 4.571212 33.8801 2.353725
2003-09-05 08:14:39 51°9.33 2°35.82 18.821279 4.572689 33.889448 2.387435
2003-09-05 08:14:45 51°9.33 2°35.81 18.821279 4.572689 33.889448 2.387435
2003-09-05 08:14:49 51°9.33 2°35.81 18.857359 4.573533 33.893541 2.320016
2003-09-05 08:14:55 51°9.34 2°35.8 18.825558 4.57406 33.895007 2.286306
2003-09-05 08:14:59 51°9.34 2°35.79 18.861061 4.574166 33.893553 2.252597
2003-09-05 08:15:05 51°9.34 2°35.79 18.828727 4.576276 33.908735 2.320016
2003-09-05 08:15:09 51°9.34 2°35.78 18.830249 4.576381 33.905532 2.320016
2003-09-05 08:15:15 51°9.34 2°35.78 18.830249 4.576381 33.905532 2.320016
2003-09-05 08:15:19 51°9.34 2°35.77 18.831689 4.577014 33.910202 2.320016
2003-09-05 08:15:25 51°9.35 2°35.77 18.832512 4.577014 33.908454 2.286306
2003-09-05 08:15:29 51°9.35 2°35.76 18.83424 4.57828 33.915464 2.252597
2003-09-05 08:15:35 51°9.35 2°35.76 18.835968 4.577542 33.909336 2.218888
2003-09-05 08:15:39 51°9.35 2°35.75 18.837408 4.577542 33.906424 2.218888
2003-09-05 08:15:45 51°9.35 2°35.75 18.837408 4.577542 33.906424 2.218888
2003-09-05 08:15:49 51°9.35 2°35.74 18.837778 4.578175 33.911094 2.218888
2003-09-05 08:15:55 51°9.35 2°35.74 18.838231 4.578808 33.914598 2.218888
2003-09-05 08:15:59 51°9.35 2°35.73 18.839054 4.579124 33.914894 2.252597
2003-09-05 08:16:05 51°9.35 2°35.73 18.873522 4.579546 33.918395 2.252597
2003-09-05 08:16:09 51°9.35 2°35.73 18.840576 4.579757 33.919563 2.218888
2003-09-05 08:16:15 51°9.35 2°35.72 18.840576 4.579757 33.919563 2.218888
2003-09-05 08:16:19 51°9.35 2°35.72 18.840412 4.579968 33.919566 2.252597
2003-09-05 08:16:25 51°9.36 2°35.71 18.840741 4.580179 33.919569 2.252597
2003-09-05 08:16:29 51°9.36 2°35.71 18.873645 4.58134 33.928031 2.252597
2003-09-05 08:16:35 51°9.36 2°35.71 18.840864 4.581551 33.929199 2.286306
2003-09-05 08:16:39 51°9.36 2°35.7 18.840946 4.581129 33.925698 2.218888
2003-09-05 08:16:45 51°9.36 2°35.7 18.840946 4.581129 33.925698 2.218888
2003-09-05 08:16:49 51°9.36 2°35.7 18.841111 4.581762 33.928619 2.218888
2003-09-05 08:16:55 51°9.36 2°35.69 18.875002 4.581657 33.928327 2.185178
2003-09-05 08:16:59 51°9.36 2°35.69 18.842551 4.581762 33.928619 2.252597
2003-09-05 08:17:05 51°9.36 2°35.69 18.842839 4.581973 33.929204 2.286306
2003-09-05 08:17:09 51°9.36 2°35.68 18.876894 4.582079 33.929497 2.218888
2003-09-05 08:17:15 51°9.36 2°35.68 18.876894 4.582079 33.929497 2.218888
2003-09-05 08:17:19 51°9.36 2°35.68 18.843579 4.582078 33.928915 2.218888
2003-09-05 08:17:25 51°9.36 2°35.67 18.844114 4.582817 33.936205 2.252597
2003-09-05 08:17:29 51°9.36 2°35.67 18.844649 4.582712 33.934748 2.286306
2003-09-05 08:17:35 51°9.36 2°35.67 18.878662 4.582817 33.93504 2.185178
2003-09-05 08:17:39 51°9.36 2°35.66 18.846089 4.583134 33.937666 2.252597
2003-09-05 08:17:45 51°9.36 2°35.66 18.846089 4.583134 33.937666 2.252597
2003-09-05 08:17:49 51°9.36 2°35.66 18.846582 4.582712 33.934165 2.218888
2003-09-05 08:17:55 51°9.36 2°35.65 18.846582 4.583556 33.940583 2.218888
2003-09-05 08:17:59 51°9.36 2°35.65 18.847282 4.583134 33.9365 2.353725
2003-09-05 08:18:05 51°9.36 2°35.65 18.847117 4.583134 33.935918 2.218888
2003-09-05 08:18:09 51°9.36 2°35.64 18.846911 4.583556 33.940001 2.252597
2003-09-05 08:18:15 51°9.36 2°35.64 18.846911 4.583556 33.940001 2.252597
2003-09-05 08:18:19 51°9.36 2°35.64 18.846911 4.583767 33.940003 2.252597
2003-09-05 08:18:25 51°9.36 2°35.63 18.846829 4.583239 33.935628 2.218888
2003-09-05 08:18:29 51°9.36 2°35.63 18.847117 4.583767 33.938838 2.185178
2003-09-05 08:18:35 51°9.35 2°35.63 18.847487 4.583978 33.940588 2.218888
2003-09-05 08:18:39 51°9.35 2°35.62 18.881581 4.583661 33.937963 2.252597
2003-09-05 08:18:45 51°9.35 2°35.62 18.881581 4.583661 33.937963 2.252597
2003-09-05 08:18:49 51°9.35 2°35.62 18.847734 4.584505 33.944963 2.252597
2003-09-05 08:18:55 51°9.35 2°35.61 18.847899 4.584716 33.946131 2.218888
2003-09-05 08:18:59 51°9.35 2°35.61 18.847816 4.584611 33.94409 2.218888
2003-09-05 08:19:05 51°9.35 2°35.61 18.848392 4.5844 33.944088 2.218888
2003-09-05 08:19:09 51°9.35 2°35.6 18.846994 4.584611 33.945838 2.151469
2003-09-05 08:19:15 51°9.35 2°35.6 18.846994 4.584611 33.945838 2.151469
2003-09-05 08:19:19 51°9.35 2°35.6 18.848104 4.584189 33.942338 2.185178
2003-09-05 08:19:25 51°9.35 2°35.59 18.848022 4.584505 33.943798 2.151469
2003-09-05 08:19:29 51°9.35 2°35.59 18.848639 4.583767 33.937673 2.185178
2003-09-05 08:19:35 51°9.35 2°35.59 18.847446 4.584505 33.943215 2.185178
2003-09-05 08:19:39 51°9.35 2°35.58 18.846294 4.583872 33.937383 2.185178
2003-09-05 08:19:45 51°9.35 2°35.58 18.846294 4.583872 33.937383 2.185178
2003-09-05 08:19:49 51°9.35 2°35.58 18.846582 4.584189 33.94059 2.151469
2003-09-05 08:19:55 51°9.35 2°35.57 18.847282 4.584294 33.941465 2.151469
2003-09-05 08:19:59 51°9.35 2°35.57 18.84757 4.584189 33.941173 2.151469
2003-09-05 08:20:05 51°9.35 2°35.57 18.847652 4.584716 33.945548 2.185178
2003-09-05 08:20:09 51°9.35 2°35.57 18.882116 4.584611 33.94409 2.151469
2003-09-05 08:20:15 51°9.35 2°35.56 18.882116 4.584611 33.94409 2.151469
2003-09-05 08:20:19 51°9.35 2°35.56 18.84794 4.5844 33.94234 2.151469
2003-09-05 08:20:25 51°9.35 2°35.56 18.846994 4.585138 33.948465 2.151469
2003-09-05 08:20:29 51°9.35 2°35.56 18.880307 4.584716 33.945548 2.185178
2003-09-05 08:20:35 51°9.35 2°35.55 18.846994 4.58556 33.952548 2.185178
2003-09-05 08:20:39 51°9.35 2°35.55 18.846541 4.585138 33.949048 2.151469
2003-09-05 08:20:45 51°9.35 2°35.55 18.846541 4.585138 33.949048 2.151469
2003-09-05 08:20:49 51°9.35 2°35.54 18.845677 4.585033 33.94759 2.151469
2003-09-05 08:20:55 51°9.35 2°35.54 18.878991 4.58556 33.952548 2.151469
2003-09-05 08:20:59 51°9.35 2°35.54 18.845472 4.584822 33.947006 2.185178
2003-09-05 08:21:05 51°9.35 2°35.54 18.845842 4.585138 33.949048 2.185178
2003-09-05 08:21:09 51°9.35 2°35.53 18.845389 4.585349 33.951381 2.218888
2003-09-05 08:21:15 51°9.35 2°35.53 18.845389 4.585349 33.951381 2.218888
2003-09-05 08:21:19 51°9.35 2°35.53 18.845307 4.585138 33.949048 2.185178
2003-09-05 08:21:25 51°9.36 2°35.53 18.844855 4.585771 33.954298 2.185178
2003-09-05 08:21:29 51°9.36 2°35.52 18.844855 4.585666 33.954006 2.218888
2003-09-05 08:21:35 51°9.36 2°35.52 18.843497 4.585771 33.955464 2.218888
2003-09-05 08:21:39 51°9.36 2°35.52 18.844114 4.585771 33.956047 2.218888
2003-09-05 08:21:45 51°9.36 2°35.52 18.844114 4.585771 33.956047 2.218888
2003-09-05 08:21:49 51°9.36 2°35.51 18.844937 4.585349 33.951381 2.218888
2003-09-05 08:21:55 51°9.36 2°35.51 18.878168 4.585455 33.951673 2.252597
2003-09-05 08:21:59 51°9.36 2°35.51 18.844731 4.584611 33.946421 2.286306
2003-09-05 08:22:05 51°9.36 2°35.51 18.845636 4.585455 33.952256 2.286306
2003-09-05 08:22:09 51°9.36 2°35.5 18.846541 4.585138 33.949048 2.286306
2003-09-05 08:22:15 51°9.36 2°35.5 18.846541 4.585138 33.949048 2.286306
2003-09-05 08:22:19 51°9.36 2°35.5 18.847899 4.585771 33.955464 2.286306
2003-09-05 08:22:25 51°9.36 2°35.5 18.849009 4.585033 33.949338 2.286306
2003-09-05 08:22:29 51°9.36 2°35.5 18.848475 4.584611 33.946421 2.252597
2003-09-05 08:22:35 51°9.37 2°35.49 18.848269 4.585349 33.952547 2.353725